<?xml version="1.0" encoding="UTF-8" standalone="no" ?>
<gpx xmlns="http://www.topografix.com/GPX/1/1" xmlns:xsi="http://www.w3.org/2001/XMLSchema-instance" xsi:schemaLocation="http://www.topografix.com/GPX/1/1 http://www.topografix.com/GPX/1/1/gpx.xsd" version="1.1" creator="VisuGPX - https://www.visugpx.com">
  <metadata>
    <name>14933708-VTT 45 km 2022</name>
    <desc><![CDATA[Rando VTT THORMONTBOU 2022
Parcourt 45km]]></desc>
  </metadata>
  <wpt lat="47.14742" lon="5.97426">
    <ele>400.5</ele>
    <name><![CDATA[Pit stop (refreshments]]></name>
    <desc><![CDATA[]]></desc>
  </wpt>
  <wpt lat="47.11566" lon="5.97395">
    <ele>395.4</ele>
    <name><![CDATA[Pit stop (refreshments]]></name>
    <desc><![CDATA[]]></desc>
  </wpt>
  <trk>
    <name><![CDATA[14933708-VTT 45 km 2022]]></name>
    <trkseg>
      <trkpt lat="47.1637" lon="5.90312">
        <ele>299</ele>
        <time>2022-06-18T12:17:02Z</time>
      </trkpt>
      <trkpt lat="47.16365" lon="5.90317">
        <ele>299</ele>
        <time>2022-06-18T12:17:03Z</time>
      </trkpt>
      <trkpt lat="47.16377" lon="5.9032">
        <ele>300</ele>
        <time>2022-06-18T12:17:06Z</time>
      </trkpt>
      <trkpt lat="47.16421" lon="5.90369">
        <ele>301</ele>
        <time>2022-06-18T12:17:19Z</time>
      </trkpt>
      <trkpt lat="47.16477" lon="5.90419">
        <ele>297</ele>
        <time>2022-06-18T12:17:34Z</time>
      </trkpt>
      <trkpt lat="47.1649" lon="5.90433">
        <ele>297</ele>
        <time>2022-06-18T12:17:38Z</time>
      </trkpt>
      <trkpt lat="47.16496" lon="5.90448">
        <ele>298</ele>
        <time>2022-06-18T12:17:41Z</time>
      </trkpt>
      <trkpt lat="47.165" lon="5.90494">
        <ele>301</ele>
        <time>2022-06-18T12:17:48Z</time>
      </trkpt>
      <trkpt lat="47.16516" lon="5.90566">
        <ele>307</ele>
        <time>2022-06-18T12:18:00Z</time>
      </trkpt>
      <trkpt lat="47.16522" lon="5.90666">
        <ele>317</ele>
        <time>2022-06-18T12:18:16Z</time>
      </trkpt>
      <trkpt lat="47.16535" lon="5.90707">
        <ele>322</ele>
        <time>2022-06-18T12:18:23Z</time>
      </trkpt>
      <trkpt lat="47.16568" lon="5.90777">
        <ele>330</ele>
        <time>2022-06-18T12:18:37Z</time>
      </trkpt>
      <trkpt lat="47.1655" lon="5.90811">
        <ele>333</ele>
        <time>2022-06-18T12:18:44Z</time>
      </trkpt>
      <trkpt lat="47.16541" lon="5.90841">
        <ele>336</ele>
        <time>2022-06-18T12:18:49Z</time>
      </trkpt>
      <trkpt lat="47.16535" lon="5.90878">
        <ele>341</ele>
        <time>2022-06-18T12:18:55Z</time>
      </trkpt>
      <trkpt lat="47.16536" lon="5.90915">
        <ele>346</ele>
        <time>2022-06-18T12:19:01Z</time>
      </trkpt>
      <trkpt lat="47.16517" lon="5.90946">
        <ele>349</ele>
        <time>2022-06-18T12:19:08Z</time>
      </trkpt>
      <trkpt lat="47.1655" lon="5.91003">
        <ele>358</ele>
        <time>2022-06-18T12:19:19Z</time>
      </trkpt>
      <trkpt lat="47.1657" lon="5.91028">
        <ele>361</ele>
        <time>2022-06-18T12:19:26Z</time>
      </trkpt>
      <trkpt lat="47.16597" lon="5.91053">
        <ele>365</ele>
        <time>2022-06-18T12:19:33Z</time>
      </trkpt>
      <trkpt lat="47.16607" lon="5.9107">
        <ele>368</ele>
        <time>2022-06-18T12:19:37Z</time>
      </trkpt>
      <trkpt lat="47.16642" lon="5.91146">
        <ele>376</ele>
        <time>2022-06-18T12:19:51Z</time>
      </trkpt>
      <trkpt lat="47.16666" lon="5.91182">
        <ele>378</ele>
        <time>2022-06-18T12:19:59Z</time>
      </trkpt>
      <trkpt lat="47.16678" lon="5.91212">
        <ele>377</ele>
        <time>2022-06-18T12:20:05Z</time>
      </trkpt>
      <trkpt lat="47.1668" lon="5.91227">
        <ele>377</ele>
        <time>2022-06-18T12:20:07Z</time>
      </trkpt>
      <trkpt lat="47.16667" lon="5.91281">
        <ele>377</ele>
        <time>2022-06-18T12:20:16Z</time>
      </trkpt>
      <trkpt lat="47.16653" lon="5.913">
        <ele>377</ele>
        <time>2022-06-18T12:20:21Z</time>
      </trkpt>
      <trkpt lat="47.16625" lon="5.91315">
        <ele>382</ele>
        <time>2022-06-18T12:20:28Z</time>
      </trkpt>
      <trkpt lat="47.16619" lon="5.91353">
        <ele>377</ele>
        <time>2022-06-18T12:20:34Z</time>
      </trkpt>
      <trkpt lat="47.16573" lon="5.91381">
        <ele>388</ele>
        <time>2022-06-18T12:20:45Z</time>
      </trkpt>
      <trkpt lat="47.16543" lon="5.91418">
        <ele>390</ele>
        <time>2022-06-18T12:20:55Z</time>
      </trkpt>
      <trkpt lat="47.16523" lon="5.91457">
        <ele>390</ele>
        <time>2022-06-18T12:21:02Z</time>
      </trkpt>
      <trkpt lat="47.16519" lon="5.91527">
        <ele>386</ele>
        <time>2022-06-18T12:21:14Z</time>
      </trkpt>
      <trkpt lat="47.16485" lon="5.91654">
        <ele>390</ele>
        <time>2022-06-18T12:21:35Z</time>
      </trkpt>
      <trkpt lat="47.1646" lon="5.91809">
        <ele>378</ele>
        <time>2022-06-18T12:22:01Z</time>
      </trkpt>
      <trkpt lat="47.1646" lon="5.919">
        <ele>361</ele>
        <time>2022-06-18T12:22:15Z</time>
      </trkpt>
      <trkpt lat="47.16471" lon="5.91965">
        <ele>350</ele>
        <time>2022-06-18T12:22:26Z</time>
      </trkpt>
      <trkpt lat="47.16475" lon="5.91964">
        <ele>349</ele>
        <time>2022-06-18T12:22:27Z</time>
      </trkpt>
      <trkpt lat="47.16472" lon="5.9192">
        <ele>354</ele>
        <time>2022-06-18T12:22:34Z</time>
      </trkpt>
      <trkpt lat="47.16487" lon="5.91849">
        <ele>359</ele>
        <time>2022-06-18T12:22:45Z</time>
      </trkpt>
      <trkpt lat="47.16513" lon="5.91801">
        <ele>356</ele>
        <time>2022-06-18T12:22:55Z</time>
      </trkpt>
      <trkpt lat="47.16525" lon="5.91759">
        <ele>357</ele>
        <time>2022-06-18T12:23:02Z</time>
      </trkpt>
      <trkpt lat="47.16539" lon="5.91734">
        <ele>352</ele>
        <time>2022-06-18T12:23:07Z</time>
      </trkpt>
      <trkpt lat="47.16546" lon="5.91736">
        <ele>348</ele>
        <time>2022-06-18T12:23:09Z</time>
      </trkpt>
      <trkpt lat="47.16547" lon="5.91765">
        <ele>343</ele>
        <time>2022-06-18T12:23:14Z</time>
      </trkpt>
      <trkpt lat="47.16534" lon="5.91827">
        <ele>340</ele>
        <time>2022-06-18T12:23:24Z</time>
      </trkpt>
      <trkpt lat="47.1653" lon="5.91923">
        <ele>330</ele>
        <time>2022-06-18T12:23:39Z</time>
      </trkpt>
      <trkpt lat="47.16542" lon="5.92036">
        <ele>316</ele>
        <time>2022-06-18T12:23:57Z</time>
      </trkpt>
      <trkpt lat="47.16545" lon="5.92037">
        <ele>314</ele>
        <time>2022-06-18T12:23:58Z</time>
      </trkpt>
      <trkpt lat="47.16548" lon="5.9203">
        <ele>313</ele>
        <time>2022-06-18T12:24:00Z</time>
      </trkpt>
      <trkpt lat="47.16566" lon="5.91935">
        <ele>312</ele>
        <time>2022-06-18T12:24:15Z</time>
      </trkpt>
      <trkpt lat="47.16585" lon="5.91897">
        <ele>307</ele>
        <time>2022-06-18T12:24:23Z</time>
      </trkpt>
      <trkpt lat="47.16597" lon="5.91882">
        <ele>305</ele>
        <time>2022-06-18T12:24:26Z</time>
      </trkpt>
      <trkpt lat="47.16611" lon="5.91871">
        <ele>302</ele>
        <time>2022-06-18T12:24:30Z</time>
      </trkpt>
      <trkpt lat="47.1662" lon="5.91869">
        <ele>300</ele>
        <time>2022-06-18T12:24:32Z</time>
      </trkpt>
      <trkpt lat="47.16643" lon="5.91878">
        <ele>292</ele>
        <time>2022-06-18T12:24:38Z</time>
      </trkpt>
      <trkpt lat="47.16659" lon="5.9189">
        <ele>287</ele>
        <time>2022-06-18T12:24:42Z</time>
      </trkpt>
      <trkpt lat="47.16669" lon="5.9189">
        <ele>284</ele>
        <time>2022-06-18T12:24:44Z</time>
      </trkpt>
      <trkpt lat="47.16683" lon="5.91887">
        <ele>280</ele>
        <time>2022-06-18T12:24:48Z</time>
      </trkpt>
      <trkpt lat="47.16704" lon="5.91873">
        <ele>276</ele>
        <time>2022-06-18T12:24:53Z</time>
      </trkpt>
      <trkpt lat="47.16718" lon="5.91845">
        <ele>276</ele>
        <time>2022-06-18T12:24:58Z</time>
      </trkpt>
      <trkpt lat="47.16718" lon="5.91814">
        <ele>277</ele>
        <time>2022-06-18T12:25:03Z</time>
      </trkpt>
      <trkpt lat="47.1671" lon="5.91774">
        <ele>279</ele>
        <time>2022-06-18T12:25:10Z</time>
      </trkpt>
      <trkpt lat="47.1671" lon="5.91731">
        <ele>278</ele>
        <time>2022-06-18T12:25:17Z</time>
      </trkpt>
      <trkpt lat="47.16702" lon="5.91673">
        <ele>278</ele>
        <time>2022-06-18T12:25:26Z</time>
      </trkpt>
      <trkpt lat="47.16738" lon="5.91557">
        <ele>264</ele>
        <time>2022-06-18T12:25:46Z</time>
      </trkpt>
      <trkpt lat="47.16753" lon="5.91528">
        <ele>260</ele>
        <time>2022-06-18T12:25:52Z</time>
      </trkpt>
      <trkpt lat="47.16796" lon="5.91475">
        <ele>252</ele>
        <time>2022-06-18T12:26:05Z</time>
      </trkpt>
      <trkpt lat="47.16819" lon="5.91432">
        <ele>248</ele>
        <time>2022-06-18T12:26:14Z</time>
      </trkpt>
      <trkpt lat="47.16827" lon="5.91409">
        <ele>247</ele>
        <time>2022-06-18T12:26:18Z</time>
      </trkpt>
      <trkpt lat="47.16853" lon="5.91378">
        <ele>247</ele>
        <time>2022-06-18T12:26:26Z</time>
      </trkpt>
      <trkpt lat="47.16883" lon="5.91356">
        <ele>243</ele>
        <time>2022-06-18T12:26:34Z</time>
      </trkpt>
      <trkpt lat="47.16909" lon="5.91353">
        <ele>237</ele>
        <time>2022-06-18T12:26:40Z</time>
      </trkpt>
      <trkpt lat="47.16927" lon="5.91359">
        <ele>234</ele>
        <time>2022-06-18T12:26:44Z</time>
      </trkpt>
      <trkpt lat="47.16936" lon="5.91372">
        <ele>233</ele>
        <time>2022-06-18T12:26:47Z</time>
      </trkpt>
      <trkpt lat="47.16953" lon="5.91433">
        <ele>230</ele>
        <time>2022-06-18T12:26:58Z</time>
      </trkpt>
      <trkpt lat="47.16981" lon="5.91486">
        <ele>228</ele>
        <time>2022-06-18T12:27:08Z</time>
      </trkpt>
      <trkpt lat="47.17001" lon="5.91541">
        <ele>226</ele>
        <time>2022-06-18T12:27:18Z</time>
      </trkpt>
      <trkpt lat="47.17057" lon="5.91765">
        <ele>227</ele>
        <time>2022-06-18T12:27:56Z</time>
      </trkpt>
      <trkpt lat="47.1706" lon="5.91801">
        <ele>227</ele>
        <time>2022-06-18T12:28:02Z</time>
      </trkpt>
      <trkpt lat="47.17058" lon="5.91974">
        <ele>226</ele>
        <time>2022-06-18T12:28:29Z</time>
      </trkpt>
      <trkpt lat="47.17064" lon="5.9201">
        <ele>226</ele>
        <time>2022-06-18T12:28:35Z</time>
      </trkpt>
      <trkpt lat="47.17074" lon="5.92275">
        <ele>228</ele>
        <time>2022-06-18T12:29:17Z</time>
      </trkpt>
      <trkpt lat="47.17097" lon="5.92588">
        <ele>226</ele>
        <time>2022-06-18T12:30:07Z</time>
      </trkpt>
      <trkpt lat="47.17032" lon="5.92638">
        <ele>229</ele>
        <time>2022-06-18T12:30:24Z</time>
      </trkpt>
      <trkpt lat="47.17022" lon="5.92663">
        <ele>230</ele>
        <time>2022-06-18T12:30:29Z</time>
      </trkpt>
      <trkpt lat="47.1701" lon="5.92713">
        <ele>231</ele>
        <time>2022-06-18T12:30:37Z</time>
      </trkpt>
      <trkpt lat="47.16966" lon="5.92749">
        <ele>233</ele>
        <time>2022-06-18T12:30:49Z</time>
      </trkpt>
      <trkpt lat="47.16921" lon="5.92814">
        <ele>237</ele>
        <time>2022-06-18T12:31:04Z</time>
      </trkpt>
      <trkpt lat="47.16907" lon="5.92813">
        <ele>239</ele>
        <time>2022-06-18T12:31:07Z</time>
      </trkpt>
      <trkpt lat="47.16878" lon="5.92775">
        <ele>241</ele>
        <time>2022-06-18T12:31:16Z</time>
      </trkpt>
      <trkpt lat="47.16854" lon="5.92758">
        <ele>242</ele>
        <time>2022-06-18T12:31:23Z</time>
      </trkpt>
      <trkpt lat="47.16838" lon="5.9275">
        <ele>243</ele>
        <time>2022-06-18T12:31:26Z</time>
      </trkpt>
      <trkpt lat="47.16823" lon="5.9275">
        <ele>244</ele>
        <time>2022-06-18T12:31:30Z</time>
      </trkpt>
      <trkpt lat="47.16757" lon="5.92836">
        <ele>250</ele>
        <time>2022-06-18T12:31:51Z</time>
      </trkpt>
      <trkpt lat="47.16743" lon="5.92873">
        <ele>250</ele>
        <time>2022-06-18T12:31:57Z</time>
      </trkpt>
      <trkpt lat="47.1674" lon="5.92892">
        <ele>251</ele>
        <time>2022-06-18T12:32:00Z</time>
      </trkpt>
      <trkpt lat="47.16766" lon="5.93016">
        <ele>254</ele>
        <time>2022-06-18T12:32:21Z</time>
      </trkpt>
      <trkpt lat="47.16791" lon="5.93079">
        <ele>257</ele>
        <time>2022-06-18T12:32:33Z</time>
      </trkpt>
      <trkpt lat="47.1681" lon="5.93112">
        <ele>260</ele>
        <time>2022-06-18T12:32:39Z</time>
      </trkpt>
      <trkpt lat="47.16839" lon="5.9315">
        <ele>261</ele>
        <time>2022-06-18T12:32:48Z</time>
      </trkpt>
      <trkpt lat="47.16867" lon="5.93174">
        <ele>264</ele>
        <time>2022-06-18T12:32:56Z</time>
      </trkpt>
      <trkpt lat="47.1693" lon="5.93262">
        <ele>273</ele>
        <time>2022-06-18T12:33:16Z</time>
      </trkpt>
      <trkpt lat="47.16968" lon="5.93337">
        <ele>284</ele>
        <time>2022-06-18T12:33:31Z</time>
      </trkpt>
      <trkpt lat="47.16969" lon="5.93362">
        <ele>286</ele>
        <time>2022-06-18T12:33:35Z</time>
      </trkpt>
      <trkpt lat="47.16965" lon="5.93383">
        <ele>288</ele>
        <time>2022-06-18T12:33:39Z</time>
      </trkpt>
      <trkpt lat="47.16984" lon="5.93407">
        <ele>290</ele>
        <time>2022-06-18T12:33:44Z</time>
      </trkpt>
      <trkpt lat="47.16991" lon="5.93424">
        <ele>291</ele>
        <time>2022-06-18T12:33:48Z</time>
      </trkpt>
      <trkpt lat="47.17007" lon="5.93438">
        <ele>294</ele>
        <time>2022-06-18T12:33:52Z</time>
      </trkpt>
      <trkpt lat="47.17012" lon="5.93449">
        <ele>297</ele>
        <time>2022-06-18T12:33:54Z</time>
      </trkpt>
      <trkpt lat="47.1704" lon="5.93478">
        <ele>304</ele>
        <time>2022-06-18T12:34:02Z</time>
      </trkpt>
      <trkpt lat="47.17133" lon="5.93596">
        <ele>325</ele>
        <time>2022-06-18T12:34:31Z</time>
      </trkpt>
      <trkpt lat="47.17161" lon="5.93623">
        <ele>330</ele>
        <time>2022-06-18T12:34:39Z</time>
      </trkpt>
      <trkpt lat="47.17192" lon="5.93661">
        <ele>327</ele>
        <time>2022-06-18T12:34:48Z</time>
      </trkpt>
      <trkpt lat="47.17198" lon="5.93689">
        <ele>328</ele>
        <time>2022-06-18T12:34:53Z</time>
      </trkpt>
      <trkpt lat="47.17188" lon="5.93712">
        <ele>332</ele>
        <time>2022-06-18T12:34:57Z</time>
      </trkpt>
      <trkpt lat="47.17159" lon="5.93733">
        <ele>336</ele>
        <time>2022-06-18T12:35:05Z</time>
      </trkpt>
      <trkpt lat="47.1716" lon="5.93743">
        <ele>336</ele>
        <time>2022-06-18T12:35:06Z</time>
      </trkpt>
      <trkpt lat="47.17171" lon="5.93756">
        <ele>336</ele>
        <time>2022-06-18T12:35:09Z</time>
      </trkpt>
      <trkpt lat="47.17215" lon="5.93789">
        <ele>331</ele>
        <time>2022-06-18T12:35:21Z</time>
      </trkpt>
      <trkpt lat="47.17246" lon="5.93821">
        <ele>330</ele>
        <time>2022-06-18T12:35:30Z</time>
      </trkpt>
      <trkpt lat="47.17274" lon="5.93862">
        <ele>318</ele>
        <time>2022-06-18T12:35:39Z</time>
      </trkpt>
      <trkpt lat="47.17279" lon="5.93887">
        <ele>316</ele>
        <time>2022-06-18T12:35:43Z</time>
      </trkpt>
      <trkpt lat="47.17287" lon="5.93901">
        <ele>313</ele>
        <time>2022-06-18T12:35:46Z</time>
      </trkpt>
      <trkpt lat="47.17299" lon="5.93944">
        <ele>311</ele>
        <time>2022-06-18T12:35:53Z</time>
      </trkpt>
      <trkpt lat="47.17311" lon="5.9403">
        <ele>307</ele>
        <time>2022-06-18T12:36:07Z</time>
      </trkpt>
      <trkpt lat="47.17364" lon="5.94183">
        <ele>296</ele>
        <time>2022-06-18T12:36:35Z</time>
      </trkpt>
      <trkpt lat="47.17372" lon="5.9422">
        <ele>296</ele>
        <time>2022-06-18T12:36:41Z</time>
      </trkpt>
      <trkpt lat="47.17391" lon="5.94267">
        <ele>293</ele>
        <time>2022-06-18T12:36:50Z</time>
      </trkpt>
      <trkpt lat="47.1741" lon="5.94336">
        <ele>284</ele>
        <time>2022-06-18T12:37:01Z</time>
      </trkpt>
      <trkpt lat="47.17406" lon="5.94393">
        <ele>279</ele>
        <time>2022-06-18T12:37:10Z</time>
      </trkpt>
      <trkpt lat="47.17399" lon="5.94416">
        <ele>277</ele>
        <time>2022-06-18T12:37:14Z</time>
      </trkpt>
      <trkpt lat="47.17411" lon="5.94455">
        <ele>270</ele>
        <time>2022-06-18T12:37:21Z</time>
      </trkpt>
      <trkpt lat="47.17407" lon="5.94464">
        <ele>269</ele>
        <time>2022-06-18T12:37:23Z</time>
      </trkpt>
      <trkpt lat="47.17385" lon="5.94478">
        <ele>268</ele>
        <time>2022-06-18T12:37:29Z</time>
      </trkpt>
      <trkpt lat="47.17376" lon="5.94514">
        <ele>263</ele>
        <time>2022-06-18T12:37:35Z</time>
      </trkpt>
      <trkpt lat="47.17368" lon="5.94528">
        <ele>262</ele>
        <time>2022-06-18T12:37:38Z</time>
      </trkpt>
      <trkpt lat="47.17333" lon="5.94551">
        <ele>259</ele>
        <time>2022-06-18T12:37:46Z</time>
      </trkpt>
      <trkpt lat="47.17292" lon="5.94568">
        <ele>256</ele>
        <time>2022-06-18T12:37:56Z</time>
      </trkpt>
      <trkpt lat="47.17276" lon="5.94593">
        <ele>255</ele>
        <time>2022-06-18T12:38:02Z</time>
      </trkpt>
      <trkpt lat="47.17249" lon="5.94653">
        <ele>257</ele>
        <time>2022-06-18T12:38:13Z</time>
      </trkpt>
      <trkpt lat="47.17236" lon="5.9467">
        <ele>260</ele>
        <time>2022-06-18T12:38:17Z</time>
      </trkpt>
      <trkpt lat="47.17226" lon="5.94675">
        <ele>262</ele>
        <time>2022-06-18T12:38:20Z</time>
      </trkpt>
      <trkpt lat="47.17198" lon="5.94666">
        <ele>266</ele>
        <time>2022-06-18T12:38:27Z</time>
      </trkpt>
      <trkpt lat="47.17144" lon="5.94633">
        <ele>271</ele>
        <time>2022-06-18T12:38:40Z</time>
      </trkpt>
      <trkpt lat="47.17099" lon="5.94618">
        <ele>277</ele>
        <time>2022-06-18T12:38:51Z</time>
      </trkpt>
      <trkpt lat="47.1704" lon="5.94623">
        <ele>286</ele>
        <time>2022-06-18T12:39:05Z</time>
      </trkpt>
      <trkpt lat="47.17022" lon="5.9463">
        <ele>289</ele>
        <time>2022-06-18T12:39:09Z</time>
      </trkpt>
      <trkpt lat="47.16994" lon="5.94658">
        <ele>294</ele>
        <time>2022-06-18T12:39:17Z</time>
      </trkpt>
      <trkpt lat="47.16929" lon="5.94779">
        <ele>302</ele>
        <time>2022-06-18T12:39:41Z</time>
      </trkpt>
      <trkpt lat="47.16911" lon="5.9482">
        <ele>304</ele>
        <time>2022-06-18T12:39:49Z</time>
      </trkpt>
      <trkpt lat="47.16894" lon="5.94841">
        <ele>304</ele>
        <time>2022-06-18T12:39:54Z</time>
      </trkpt>
      <trkpt lat="47.16889" lon="5.94844">
        <ele>304</ele>
        <time>2022-06-18T12:39:56Z</time>
      </trkpt>
      <trkpt lat="47.1688" lon="5.94842">
        <ele>304</ele>
        <time>2022-06-18T12:39:58Z</time>
      </trkpt>
      <trkpt lat="47.16853" lon="5.94822">
        <ele>304</ele>
        <time>2022-06-18T12:40:05Z</time>
      </trkpt>
      <trkpt lat="47.16797" lon="5.9487">
        <ele>301</ele>
        <time>2022-06-18T12:40:20Z</time>
      </trkpt>
      <trkpt lat="47.16773" lon="5.94881">
        <ele>300</ele>
        <time>2022-06-18T12:40:26Z</time>
      </trkpt>
      <trkpt lat="47.16754" lon="5.94872">
        <ele>299</ele>
        <time>2022-06-18T12:40:31Z</time>
      </trkpt>
      <trkpt lat="47.16743" lon="5.94882">
        <ele>299</ele>
        <time>2022-06-18T12:40:34Z</time>
      </trkpt>
      <trkpt lat="47.16663" lon="5.95003">
        <ele>306</ele>
        <time>2022-06-18T12:41:00Z</time>
      </trkpt>
      <trkpt lat="47.16614" lon="5.9509">
        <ele>318</ele>
        <time>2022-06-18T12:41:18Z</time>
      </trkpt>
      <trkpt lat="47.16543" lon="5.95195">
        <ele>341</ele>
        <time>2022-06-18T12:41:42Z</time>
      </trkpt>
      <trkpt lat="47.16535" lon="5.9525">
        <ele>357</ele>
        <time>2022-06-18T12:41:51Z</time>
      </trkpt>
      <trkpt lat="47.16543" lon="5.95309">
        <ele>368</ele>
        <time>2022-06-18T12:42:00Z</time>
      </trkpt>
      <trkpt lat="47.16605" lon="5.95468">
        <ele>371</ele>
        <time>2022-06-18T12:42:29Z</time>
      </trkpt>
      <trkpt lat="47.16638" lon="5.95602">
        <ele>375</ele>
        <time>2022-06-18T12:42:52Z</time>
      </trkpt>
      <trkpt lat="47.16657" lon="5.95642">
        <ele>374</ele>
        <time>2022-06-18T12:43:00Z</time>
      </trkpt>
      <trkpt lat="47.16686" lon="5.95674">
        <ele>369</ele>
        <time>2022-06-18T12:43:08Z</time>
      </trkpt>
      <trkpt lat="47.16691" lon="5.95685">
        <ele>368</ele>
        <time>2022-06-18T12:43:10Z</time>
      </trkpt>
      <trkpt lat="47.16684" lon="5.95739">
        <ele>369</ele>
        <time>2022-06-18T12:43:19Z</time>
      </trkpt>
      <trkpt lat="47.16686" lon="5.95751">
        <ele>369</ele>
        <time>2022-06-18T12:43:21Z</time>
      </trkpt>
      <trkpt lat="47.16711" lon="5.95814">
        <ele>370</ele>
        <time>2022-06-18T12:43:33Z</time>
      </trkpt>
      <trkpt lat="47.16748" lon="5.95987">
        <ele>375</ele>
        <time>2022-06-18T12:44:01Z</time>
      </trkpt>
      <trkpt lat="47.16747" lon="5.96036">
        <ele>377</ele>
        <time>2022-06-18T12:44:09Z</time>
      </trkpt>
      <trkpt lat="47.1672" lon="5.96116">
        <ele>383</ele>
        <time>2022-06-18T12:44:23Z</time>
      </trkpt>
      <trkpt lat="47.16714" lon="5.96125">
        <ele>384</ele>
        <time>2022-06-18T12:44:25Z</time>
      </trkpt>
      <trkpt lat="47.16698" lon="5.96134">
        <ele>385</ele>
        <time>2022-06-18T12:44:29Z</time>
      </trkpt>
      <trkpt lat="47.16658" lon="5.96136">
        <ele>386</ele>
        <time>2022-06-18T12:44:39Z</time>
      </trkpt>
      <trkpt lat="47.16639" lon="5.96146">
        <ele>388</ele>
        <time>2022-06-18T12:44:43Z</time>
      </trkpt>
      <trkpt lat="47.16613" lon="5.96182">
        <ele>393</ele>
        <time>2022-06-18T12:44:52Z</time>
      </trkpt>
      <trkpt lat="47.16611" lon="5.96202">
        <ele>395</ele>
        <time>2022-06-18T12:44:55Z</time>
      </trkpt>
      <trkpt lat="47.16653" lon="5.9627">
        <ele>400</ele>
        <time>2022-06-18T12:45:10Z</time>
      </trkpt>
      <trkpt lat="47.16697" lon="5.96322">
        <ele>403</ele>
        <time>2022-06-18T12:45:23Z</time>
      </trkpt>
      <trkpt lat="47.16709" lon="5.96353">
        <ele>404</ele>
        <time>2022-06-18T12:45:28Z</time>
      </trkpt>
      <trkpt lat="47.16731" lon="5.9639">
        <ele>402</ele>
        <time>2022-06-18T12:45:36Z</time>
      </trkpt>
      <trkpt lat="47.16727" lon="5.96425">
        <ele>401</ele>
        <time>2022-06-18T12:45:42Z</time>
      </trkpt>
      <trkpt lat="47.16759" lon="5.96474">
        <ele>396</ele>
        <time>2022-06-18T12:45:53Z</time>
      </trkpt>
      <trkpt lat="47.16801" lon="5.96522">
        <ele>393</ele>
        <time>2022-06-18T12:46:05Z</time>
      </trkpt>
      <trkpt lat="47.16892" lon="5.96602">
        <ele>387</ele>
        <time>2022-06-18T12:46:30Z</time>
      </trkpt>
      <trkpt lat="47.16924" lon="5.96622">
        <ele>385</ele>
        <time>2022-06-18T12:46:38Z</time>
      </trkpt>
      <trkpt lat="47.16948" lon="5.96646">
        <ele>379</ele>
        <time>2022-06-18T12:46:45Z</time>
      </trkpt>
      <trkpt lat="47.16992" lon="5.9668">
        <ele>374</ele>
        <time>2022-06-18T12:46:56Z</time>
      </trkpt>
      <trkpt lat="47.17008" lon="5.96707">
        <ele>371</ele>
        <time>2022-06-18T12:47:02Z</time>
      </trkpt>
      <trkpt lat="47.17008" lon="5.96704">
        <ele>371</ele>
        <time>2022-06-18T12:47:02Z</time>
      </trkpt>
      <trkpt lat="47.17016" lon="5.96727">
        <ele>369</ele>
        <time>2022-06-18T12:47:07Z</time>
      </trkpt>
      <trkpt lat="47.1705" lon="5.96769">
        <ele>366</ele>
        <time>2022-06-18T12:47:17Z</time>
      </trkpt>
      <trkpt lat="47.17145" lon="5.96833">
        <ele>366</ele>
        <time>2022-06-18T12:47:41Z</time>
      </trkpt>
      <trkpt lat="47.17158" lon="5.9687">
        <ele>365</ele>
        <time>2022-06-18T12:47:48Z</time>
      </trkpt>
      <trkpt lat="47.17165" lon="5.96912">
        <ele>364</ele>
        <time>2022-06-18T12:47:55Z</time>
      </trkpt>
      <trkpt lat="47.17176" lon="5.96948">
        <ele>365</ele>
        <time>2022-06-18T12:48:01Z</time>
      </trkpt>
      <trkpt lat="47.17281" lon="5.97196">
        <ele>377</ele>
        <time>2022-06-18T12:48:47Z</time>
      </trkpt>
      <trkpt lat="47.17315" lon="5.97288">
        <ele>381</ele>
        <time>2022-06-18T12:49:04Z</time>
      </trkpt>
      <trkpt lat="47.17322" lon="5.97315">
        <ele>383</ele>
        <time>2022-06-18T12:49:09Z</time>
      </trkpt>
      <trkpt lat="47.17321" lon="5.97357">
        <ele>385</ele>
        <time>2022-06-18T12:49:15Z</time>
      </trkpt>
      <trkpt lat="47.17311" lon="5.97354">
        <ele>385</ele>
        <time>2022-06-18T12:49:18Z</time>
      </trkpt>
      <trkpt lat="47.17304" lon="5.97361">
        <ele>385</ele>
        <time>2022-06-18T12:49:20Z</time>
      </trkpt>
      <trkpt lat="47.17287" lon="5.97463">
        <ele>386</ele>
        <time>2022-06-18T12:49:36Z</time>
      </trkpt>
      <trkpt lat="47.17266" lon="5.97494">
        <ele>384</ele>
        <time>2022-06-18T12:49:43Z</time>
      </trkpt>
      <trkpt lat="47.17254" lon="5.97491">
        <ele>383</ele>
        <time>2022-06-18T12:49:46Z</time>
      </trkpt>
      <trkpt lat="47.17218" lon="5.97455">
        <ele>384</ele>
        <time>2022-06-18T12:49:56Z</time>
      </trkpt>
      <trkpt lat="47.17194" lon="5.97443">
        <ele>386</ele>
        <time>2022-06-18T12:50:02Z</time>
      </trkpt>
      <trkpt lat="47.17175" lon="5.97449">
        <ele>386</ele>
        <time>2022-06-18T12:50:07Z</time>
      </trkpt>
      <trkpt lat="47.17159" lon="5.97461">
        <ele>386</ele>
        <time>2022-06-18T12:50:11Z</time>
      </trkpt>
      <trkpt lat="47.17131" lon="5.97461">
        <ele>385</ele>
        <time>2022-06-18T12:50:18Z</time>
      </trkpt>
      <trkpt lat="47.1711" lon="5.97456">
        <ele>384</ele>
        <time>2022-06-18T12:50:22Z</time>
      </trkpt>
      <trkpt lat="47.17077" lon="5.97441">
        <ele>384</ele>
        <time>2022-06-18T12:50:31Z</time>
      </trkpt>
      <trkpt lat="47.17056" lon="5.97438">
        <ele>381</ele>
        <time>2022-06-18T12:50:35Z</time>
      </trkpt>
      <trkpt lat="47.17026" lon="5.97436">
        <ele>378</ele>
        <time>2022-06-18T12:50:43Z</time>
      </trkpt>
      <trkpt lat="47.1699" lon="5.97442">
        <ele>374</ele>
        <time>2022-06-18T12:50:51Z</time>
      </trkpt>
      <trkpt lat="47.16953" lon="5.97438">
        <ele>373</ele>
        <time>2022-06-18T12:51:00Z</time>
      </trkpt>
      <trkpt lat="47.16871" lon="5.97406">
        <ele>370</ele>
        <time>2022-06-18T12:51:19Z</time>
      </trkpt>
      <trkpt lat="47.16803" lon="5.97394">
        <ele>369</ele>
        <time>2022-06-18T12:51:35Z</time>
      </trkpt>
      <trkpt lat="47.16692" lon="5.97413">
        <ele>361</ele>
        <time>2022-06-18T12:52:02Z</time>
      </trkpt>
      <trkpt lat="47.16603" lon="5.97406">
        <ele>353</ele>
        <time>2022-06-18T12:52:22Z</time>
      </trkpt>
      <trkpt lat="47.16525" lon="5.97381">
        <ele>347</ele>
        <time>2022-06-18T12:52:41Z</time>
      </trkpt>
      <trkpt lat="47.16479" lon="5.97374">
        <ele>344</ele>
        <time>2022-06-18T12:52:52Z</time>
      </trkpt>
      <trkpt lat="47.16406" lon="5.97288">
        <ele>340</ele>
        <time>2022-06-18T12:53:14Z</time>
      </trkpt>
      <trkpt lat="47.16336" lon="5.97292">
        <ele>333</ele>
        <time>2022-06-18T12:53:30Z</time>
      </trkpt>
      <trkpt lat="47.16301" lon="5.97298">
        <ele>333</ele>
        <time>2022-06-18T12:53:38Z</time>
      </trkpt>
      <trkpt lat="47.16278" lon="5.97309">
        <ele>333</ele>
        <time>2022-06-18T12:53:44Z</time>
      </trkpt>
      <trkpt lat="47.16262" lon="5.9731">
        <ele>333</ele>
        <time>2022-06-18T12:53:48Z</time>
      </trkpt>
      <trkpt lat="47.1615" lon="5.97296">
        <ele>338</ele>
        <time>2022-06-18T12:54:14Z</time>
      </trkpt>
      <trkpt lat="47.16109" lon="5.9728">
        <ele>339</ele>
        <time>2022-06-18T12:54:24Z</time>
      </trkpt>
      <trkpt lat="47.15929" lon="5.97183">
        <ele>349</ele>
        <time>2022-06-18T12:55:09Z</time>
      </trkpt>
      <trkpt lat="47.15914" lon="5.97181">
        <ele>351</ele>
        <time>2022-06-18T12:55:12Z</time>
      </trkpt>
      <trkpt lat="47.15908" lon="5.97189">
        <ele>352</ele>
        <time>2022-06-18T12:55:14Z</time>
      </trkpt>
      <trkpt lat="47.15913" lon="5.97181">
        <ele>351</ele>
        <time>2022-06-18T12:55:16Z</time>
      </trkpt>
      <trkpt lat="47.15889" lon="5.97178">
        <ele>353</ele>
        <time>2022-06-18T12:55:21Z</time>
      </trkpt>
      <trkpt lat="47.15834" lon="5.97159">
        <ele>356</ele>
        <time>2022-06-18T12:55:34Z</time>
      </trkpt>
      <trkpt lat="47.15824" lon="5.97165">
        <ele>357</ele>
        <time>2022-06-18T12:55:37Z</time>
      </trkpt>
      <trkpt lat="47.15819" lon="5.97174">
        <ele>359</ele>
        <time>2022-06-18T12:55:39Z</time>
      </trkpt>
      <trkpt lat="47.15806" lon="5.9723">
        <ele>365</ele>
        <time>2022-06-18T12:55:48Z</time>
      </trkpt>
      <trkpt lat="47.15818" lon="5.9733">
        <ele>377</ele>
        <time>2022-06-18T12:56:04Z</time>
      </trkpt>
      <trkpt lat="47.15822" lon="5.97341">
        <ele>378</ele>
        <time>2022-06-18T12:56:06Z</time>
      </trkpt>
      <trkpt lat="47.15843" lon="5.97366">
        <ele>380</ele>
        <time>2022-06-18T12:56:13Z</time>
      </trkpt>
      <trkpt lat="47.15858" lon="5.97393">
        <ele>383</ele>
        <time>2022-06-18T12:56:18Z</time>
      </trkpt>
      <trkpt lat="47.15874" lon="5.97444">
        <ele>391</ele>
        <time>2022-06-18T12:56:27Z</time>
      </trkpt>
      <trkpt lat="47.15878" lon="5.97504">
        <ele>399</ele>
        <time>2022-06-18T12:56:37Z</time>
      </trkpt>
      <trkpt lat="47.15875" lon="5.9752">
        <ele>400</ele>
        <time>2022-06-18T12:56:39Z</time>
      </trkpt>
      <trkpt lat="47.15864" lon="5.97525">
        <ele>400</ele>
        <time>2022-06-18T12:56:42Z</time>
      </trkpt>
      <trkpt lat="47.15825" lon="5.97522">
        <ele>400</ele>
        <time>2022-06-18T12:56:51Z</time>
      </trkpt>
      <trkpt lat="47.15812" lon="5.97528">
        <ele>401</ele>
        <time>2022-06-18T12:56:54Z</time>
      </trkpt>
      <trkpt lat="47.1575" lon="5.97527">
        <ele>405</ele>
        <time>2022-06-18T12:57:09Z</time>
      </trkpt>
      <trkpt lat="47.15731" lon="5.97515">
        <ele>407</ele>
        <time>2022-06-18T12:57:14Z</time>
      </trkpt>
      <trkpt lat="47.15701" lon="5.97504">
        <ele>410</ele>
        <time>2022-06-18T12:57:21Z</time>
      </trkpt>
      <trkpt lat="47.15682" lon="5.97477">
        <ele>410</ele>
        <time>2022-06-18T12:57:27Z</time>
      </trkpt>
      <trkpt lat="47.15622" lon="5.97418">
        <ele>415</ele>
        <time>2022-06-18T12:57:44Z</time>
      </trkpt>
      <trkpt lat="47.15564" lon="5.97392">
        <ele>420</ele>
        <time>2022-06-18T12:57:58Z</time>
      </trkpt>
      <trkpt lat="47.15538" lon="5.97369">
        <ele>421</ele>
        <time>2022-06-18T12:58:05Z</time>
      </trkpt>
      <trkpt lat="47.15486" lon="5.97342">
        <ele>423</ele>
        <time>2022-06-18T12:58:18Z</time>
      </trkpt>
      <trkpt lat="47.15429" lon="5.97348">
        <ele>418</ele>
        <time>2022-06-18T12:58:31Z</time>
      </trkpt>
      <trkpt lat="47.15398" lon="5.97347">
        <ele>415</ele>
        <time>2022-06-18T12:58:39Z</time>
      </trkpt>
      <trkpt lat="47.1533" lon="5.97367">
        <ele>406</ele>
        <time>2022-06-18T12:58:55Z</time>
      </trkpt>
      <trkpt lat="47.15323" lon="5.97366">
        <ele>405</ele>
        <time>2022-06-18T12:58:56Z</time>
      </trkpt>
      <trkpt lat="47.15309" lon="5.97359">
        <ele>405</ele>
        <time>2022-06-18T12:59:00Z</time>
      </trkpt>
      <trkpt lat="47.15279" lon="5.97333">
        <ele>404</ele>
        <time>2022-06-18T12:59:08Z</time>
      </trkpt>
      <trkpt lat="47.15258" lon="5.97302">
        <ele>401</ele>
        <time>2022-06-18T12:59:15Z</time>
      </trkpt>
      <trkpt lat="47.15231" lon="5.9729">
        <ele>400</ele>
        <time>2022-06-18T12:59:22Z</time>
      </trkpt>
      <trkpt lat="47.15222" lon="5.97292">
        <ele>400</ele>
        <time>2022-06-18T12:59:24Z</time>
      </trkpt>
      <trkpt lat="47.152" lon="5.9731">
        <ele>400</ele>
        <time>2022-06-18T12:59:30Z</time>
      </trkpt>
      <trkpt lat="47.15169" lon="5.97344">
        <ele>399</ele>
        <time>2022-06-18T12:59:39Z</time>
      </trkpt>
      <trkpt lat="47.15124" lon="5.97436">
        <ele>395</ele>
        <time>2022-06-18T12:59:57Z</time>
      </trkpt>
      <trkpt lat="47.15097" lon="5.97473">
        <ele>396</ele>
        <time>2022-06-18T13:00:05Z</time>
      </trkpt>
      <trkpt lat="47.15052" lon="5.97508">
        <ele>396</ele>
        <time>2022-06-18T13:00:17Z</time>
      </trkpt>
      <trkpt lat="47.15034" lon="5.97516">
        <ele>396</ele>
        <time>2022-06-18T13:00:21Z</time>
      </trkpt>
      <trkpt lat="47.15017" lon="5.97521">
        <ele>397</ele>
        <time>2022-06-18T13:00:26Z</time>
      </trkpt>
      <trkpt lat="47.14977" lon="5.97517">
        <ele>398</ele>
        <time>2022-06-18T13:00:35Z</time>
      </trkpt>
      <trkpt lat="47.14925" lon="5.97501">
        <ele>400</ele>
        <time>2022-06-18T13:00:47Z</time>
      </trkpt>
      <trkpt lat="47.14876" lon="5.97477">
        <ele>400</ele>
        <time>2022-06-18T13:00:59Z</time>
      </trkpt>
      <trkpt lat="47.14839" lon="5.97467">
        <ele>401</ele>
        <time>2022-06-18T13:01:08Z</time>
      </trkpt>
      <trkpt lat="47.14803" lon="5.97448">
        <ele>399</ele>
        <time>2022-06-18T13:01:17Z</time>
      </trkpt>
      <trkpt lat="47.14772" lon="5.97438">
        <ele>398</ele>
        <time>2022-06-18T13:01:24Z</time>
      </trkpt>
      <trkpt lat="47.14756" lon="5.97428">
        <ele>398</ele>
        <time>2022-06-18T13:01:29Z</time>
      </trkpt>
      <trkpt lat="47.14671" lon="5.97347">
        <ele>392</ele>
        <time>2022-06-18T13:01:52Z</time>
      </trkpt>
      <trkpt lat="47.14644" lon="5.97329">
        <ele>390</ele>
        <time>2022-06-18T13:01:59Z</time>
      </trkpt>
      <trkpt lat="47.14589" lon="5.97278">
        <ele>385</ele>
        <time>2022-06-18T13:02:14Z</time>
      </trkpt>
      <trkpt lat="47.14573" lon="5.97273">
        <ele>384</ele>
        <time>2022-06-18T13:02:18Z</time>
      </trkpt>
      <trkpt lat="47.14552" lon="5.97273">
        <ele>383</ele>
        <time>2022-06-18T13:02:23Z</time>
      </trkpt>
      <trkpt lat="47.14519" lon="5.97292">
        <ele>380</ele>
        <time>2022-06-18T13:02:31Z</time>
      </trkpt>
      <trkpt lat="47.14473" lon="5.97341">
        <ele>377</ele>
        <time>2022-06-18T13:02:45Z</time>
      </trkpt>
      <trkpt lat="47.14441" lon="5.97369">
        <ele>376</ele>
        <time>2022-06-18T13:02:53Z</time>
      </trkpt>
      <trkpt lat="47.14424" lon="5.97379">
        <ele>375</ele>
        <time>2022-06-18T13:02:58Z</time>
      </trkpt>
      <trkpt lat="47.14355" lon="5.97391">
        <ele>371</ele>
        <time>2022-06-18T13:03:14Z</time>
      </trkpt>
      <trkpt lat="47.14197" lon="5.97395">
        <ele>368</ele>
        <time>2022-06-18T13:03:51Z</time>
      </trkpt>
      <trkpt lat="47.14149" lon="5.97417">
        <ele>368</ele>
        <time>2022-06-18T13:04:02Z</time>
      </trkpt>
      <trkpt lat="47.14085" lon="5.9746">
        <ele>367</ele>
        <time>2022-06-18T13:04:19Z</time>
      </trkpt>
      <trkpt lat="47.14017" lon="5.97518">
        <ele>370</ele>
        <time>2022-06-18T13:04:37Z</time>
      </trkpt>
      <trkpt lat="47.13996" lon="5.97541">
        <ele>371</ele>
        <time>2022-06-18T13:04:43Z</time>
      </trkpt>
      <trkpt lat="47.13989" lon="5.97555">
        <ele>370</ele>
        <time>2022-06-18T13:04:46Z</time>
      </trkpt>
      <trkpt lat="47.13985" lon="5.97586">
        <ele>371</ele>
        <time>2022-06-18T13:04:51Z</time>
      </trkpt>
      <trkpt lat="47.13986" lon="5.97619">
        <ele>371</ele>
        <time>2022-06-18T13:04:56Z</time>
      </trkpt>
      <trkpt lat="47.14" lon="5.97698">
        <ele>373</ele>
        <time>2022-06-18T13:05:09Z</time>
      </trkpt>
      <trkpt lat="47.13996" lon="5.97709">
        <ele>373</ele>
        <time>2022-06-18T13:05:11Z</time>
      </trkpt>
      <trkpt lat="47.13973" lon="5.9773">
        <ele>374</ele>
        <time>2022-06-18T13:05:18Z</time>
      </trkpt>
      <trkpt lat="47.13951" lon="5.97736">
        <ele>374</ele>
        <time>2022-06-18T13:05:23Z</time>
      </trkpt>
      <trkpt lat="47.13925" lon="5.97736">
        <ele>374</ele>
        <time>2022-06-18T13:05:29Z</time>
      </trkpt>
      <trkpt lat="47.13798" lon="5.97713">
        <ele>381</ele>
        <time>2022-06-18T13:05:59Z</time>
      </trkpt>
      <trkpt lat="47.13756" lon="5.97704">
        <ele>382</ele>
        <time>2022-06-18T13:06:09Z</time>
      </trkpt>
      <trkpt lat="47.13561" lon="5.97645">
        <ele>387</ele>
        <time>2022-06-18T13:06:55Z</time>
      </trkpt>
      <trkpt lat="47.13501" lon="5.97645">
        <ele>391</ele>
        <time>2022-06-18T13:07:09Z</time>
      </trkpt>
      <trkpt lat="47.13461" lon="5.97658">
        <ele>392</ele>
        <time>2022-06-18T13:07:19Z</time>
      </trkpt>
      <trkpt lat="47.13425" lon="5.97681">
        <ele>393</ele>
        <time>2022-06-18T13:07:28Z</time>
      </trkpt>
      <trkpt lat="47.13428" lon="5.97744">
        <ele>396</ele>
        <time>2022-06-18T13:07:38Z</time>
      </trkpt>
      <trkpt lat="47.13416" lon="5.97758">
        <ele>396</ele>
        <time>2022-06-18T13:07:42Z</time>
      </trkpt>
      <trkpt lat="47.13412" lon="5.97773">
        <ele>395</ele>
        <time>2022-06-18T13:07:44Z</time>
      </trkpt>
      <trkpt lat="47.13404" lon="5.97775">
        <ele>395</ele>
        <time>2022-06-18T13:07:46Z</time>
      </trkpt>
      <trkpt lat="47.13392" lon="5.97793">
        <ele>394</ele>
        <time>2022-06-18T13:07:50Z</time>
      </trkpt>
      <trkpt lat="47.13353" lon="5.9788">
        <ele>393</ele>
        <time>2022-06-18T13:08:07Z</time>
      </trkpt>
      <trkpt lat="47.13351" lon="5.97906">
        <ele>393</ele>
        <time>2022-06-18T13:08:11Z</time>
      </trkpt>
      <trkpt lat="47.13344" lon="5.97931">
        <ele>394</ele>
        <time>2022-06-18T13:08:15Z</time>
      </trkpt>
      <trkpt lat="47.13313" lon="5.97991">
        <ele>396</ele>
        <time>2022-06-18T13:08:27Z</time>
      </trkpt>
      <trkpt lat="47.13279" lon="5.98098">
        <ele>398</ele>
        <time>2022-06-18T13:08:46Z</time>
      </trkpt>
      <trkpt lat="47.13283" lon="5.98129">
        <ele>399</ele>
        <time>2022-06-18T13:08:51Z</time>
      </trkpt>
      <trkpt lat="47.13335" lon="5.98281">
        <ele>404</ele>
        <time>2022-06-18T13:09:18Z</time>
      </trkpt>
      <trkpt lat="47.13348" lon="5.98378">
        <ele>406</ele>
        <time>2022-06-18T13:09:33Z</time>
      </trkpt>
      <trkpt lat="47.13348" lon="5.98394">
        <ele>406</ele>
        <time>2022-06-18T13:09:36Z</time>
      </trkpt>
      <trkpt lat="47.13335" lon="5.98428">
        <ele>406</ele>
        <time>2022-06-18T13:09:42Z</time>
      </trkpt>
      <trkpt lat="47.13369" lon="5.98498">
        <ele>409</ele>
        <time>2022-06-18T13:09:56Z</time>
      </trkpt>
      <trkpt lat="47.13372" lon="5.98518">
        <ele>410</ele>
        <time>2022-06-18T13:09:59Z</time>
      </trkpt>
      <trkpt lat="47.13353" lon="5.9865">
        <ele>413</ele>
        <time>2022-06-18T13:10:21Z</time>
      </trkpt>
      <trkpt lat="47.13356" lon="5.98745">
        <ele>412</ele>
        <time>2022-06-18T13:10:36Z</time>
      </trkpt>
      <trkpt lat="47.13368" lon="5.98794">
        <ele>410</ele>
        <time>2022-06-18T13:10:44Z</time>
      </trkpt>
      <trkpt lat="47.13387" lon="5.98818">
        <ele>409</ele>
        <time>2022-06-18T13:10:50Z</time>
      </trkpt>
      <trkpt lat="47.13401" lon="5.98845">
        <ele>408</ele>
        <time>2022-06-18T13:10:55Z</time>
      </trkpt>
      <trkpt lat="47.13399" lon="5.98913">
        <ele>411</ele>
        <time>2022-06-18T13:11:06Z</time>
      </trkpt>
      <trkpt lat="47.13384" lon="5.98925">
        <ele>412</ele>
        <time>2022-06-18T13:11:10Z</time>
      </trkpt>
      <trkpt lat="47.13367" lon="5.98921">
        <ele>413</ele>
        <time>2022-06-18T13:11:14Z</time>
      </trkpt>
      <trkpt lat="47.13351" lon="5.98927">
        <ele>414</ele>
        <time>2022-06-18T13:11:18Z</time>
      </trkpt>
      <trkpt lat="47.13319" lon="5.98966">
        <ele>416</ele>
        <time>2022-06-18T13:11:28Z</time>
      </trkpt>
      <trkpt lat="47.13296" lon="5.98977">
        <ele>417</ele>
        <time>2022-06-18T13:11:33Z</time>
      </trkpt>
      <trkpt lat="47.13275" lon="5.99033">
        <ele>420</ele>
        <time>2022-06-18T13:11:43Z</time>
      </trkpt>
      <trkpt lat="47.13255" lon="5.99044">
        <ele>421</ele>
        <time>2022-06-18T13:11:48Z</time>
      </trkpt>
      <trkpt lat="47.13245" lon="5.99044">
        <ele>421</ele>
        <time>2022-06-18T13:11:51Z</time>
      </trkpt>
      <trkpt lat="47.13237" lon="5.99034">
        <ele>422</ele>
        <time>2022-06-18T13:11:53Z</time>
      </trkpt>
      <trkpt lat="47.13222" lon="5.98985">
        <ele>422</ele>
        <time>2022-06-18T13:12:02Z</time>
      </trkpt>
      <trkpt lat="47.13193" lon="5.98933">
        <ele>423</ele>
        <time>2022-06-18T13:12:12Z</time>
      </trkpt>
      <trkpt lat="47.13196" lon="5.98915">
        <ele>423</ele>
        <time>2022-06-18T13:12:15Z</time>
      </trkpt>
      <trkpt lat="47.13219" lon="5.98877">
        <ele>420</ele>
        <time>2022-06-18T13:12:23Z</time>
      </trkpt>
      <trkpt lat="47.13214" lon="5.98847">
        <ele>420</ele>
        <time>2022-06-18T13:12:28Z</time>
      </trkpt>
      <trkpt lat="47.13209" lon="5.98843">
        <ele>419</ele>
        <time>2022-06-18T13:12:30Z</time>
      </trkpt>
      <trkpt lat="47.13194" lon="5.98844">
        <ele>419</ele>
        <time>2022-06-18T13:12:33Z</time>
      </trkpt>
      <trkpt lat="47.13166" lon="5.98869">
        <ele>421</ele>
        <time>2022-06-18T13:12:41Z</time>
      </trkpt>
      <trkpt lat="47.13135" lon="5.98868">
        <ele>423</ele>
        <time>2022-06-18T13:12:48Z</time>
      </trkpt>
      <trkpt lat="47.13116" lon="5.98891">
        <ele>426</ele>
        <time>2022-06-18T13:12:54Z</time>
      </trkpt>
      <trkpt lat="47.13085" lon="5.98902">
        <ele>429</ele>
        <time>2022-06-18T13:13:01Z</time>
      </trkpt>
      <trkpt lat="47.13074" lon="5.98913">
        <ele>429</ele>
        <time>2022-06-18T13:13:04Z</time>
      </trkpt>
      <trkpt lat="47.13053" lon="5.98924">
        <ele>430</ele>
        <time>2022-06-18T13:13:10Z</time>
      </trkpt>
      <trkpt lat="47.13009" lon="5.98984">
        <ele>434</ele>
        <time>2022-06-18T13:13:24Z</time>
      </trkpt>
      <trkpt lat="47.12998" lon="5.98992">
        <ele>435</ele>
        <time>2022-06-18T13:13:26Z</time>
      </trkpt>
      <trkpt lat="47.12989" lon="5.98996">
        <ele>435</ele>
        <time>2022-06-18T13:13:29Z</time>
      </trkpt>
      <trkpt lat="47.12957" lon="5.98986">
        <ele>434</ele>
        <time>2022-06-18T13:13:36Z</time>
      </trkpt>
      <trkpt lat="47.12938" lon="5.9899">
        <ele>433</ele>
        <time>2022-06-18T13:13:41Z</time>
      </trkpt>
      <trkpt lat="47.12928" lon="5.99006">
        <ele>433</ele>
        <time>2022-06-18T13:13:44Z</time>
      </trkpt>
      <trkpt lat="47.12902" lon="5.99078">
        <ele>436</ele>
        <time>2022-06-18T13:13:57Z</time>
      </trkpt>
      <trkpt lat="47.12877" lon="5.99078">
        <ele>437</ele>
        <time>2022-06-18T13:14:03Z</time>
      </trkpt>
      <trkpt lat="47.1285" lon="5.99066">
        <ele>437</ele>
        <time>2022-06-18T13:14:10Z</time>
      </trkpt>
      <trkpt lat="47.12797" lon="5.99121">
        <ele>441</ele>
        <time>2022-06-18T13:14:25Z</time>
      </trkpt>
      <trkpt lat="47.12784" lon="5.99144">
        <ele>442</ele>
        <time>2022-06-18T13:14:30Z</time>
      </trkpt>
      <trkpt lat="47.12796" lon="5.99195">
        <ele>442</ele>
        <time>2022-06-18T13:14:38Z</time>
      </trkpt>
      <trkpt lat="47.12809" lon="5.99211">
        <ele>442</ele>
        <time>2022-06-18T13:14:42Z</time>
      </trkpt>
      <trkpt lat="47.12835" lon="5.99229">
        <ele>441</ele>
        <time>2022-06-18T13:14:49Z</time>
      </trkpt>
      <trkpt lat="47.12848" lon="5.9929">
        <ele>441</ele>
        <time>2022-06-18T13:14:59Z</time>
      </trkpt>
      <trkpt lat="47.12862" lon="5.993">
        <ele>441</ele>
        <time>2022-06-18T13:15:03Z</time>
      </trkpt>
      <trkpt lat="47.12889" lon="5.99385">
        <ele>439</ele>
        <time>2022-06-18T13:15:17Z</time>
      </trkpt>
      <trkpt lat="47.12926" lon="5.99471">
        <ele>437</ele>
        <time>2022-06-18T13:15:34Z</time>
      </trkpt>
      <trkpt lat="47.12946" lon="5.99549">
        <ele>435</ele>
        <time>2022-06-18T13:15:47Z</time>
      </trkpt>
      <trkpt lat="47.12963" lon="5.9958">
        <ele>434</ele>
        <time>2022-06-18T13:15:53Z</time>
      </trkpt>
      <trkpt lat="47.12972" lon="5.99613">
        <ele>433</ele>
        <time>2022-06-18T13:15:59Z</time>
      </trkpt>
      <trkpt lat="47.12993" lon="5.99649">
        <ele>431</ele>
        <time>2022-06-18T13:16:06Z</time>
      </trkpt>
      <trkpt lat="47.12999" lon="5.99733">
        <ele>431</ele>
        <time>2022-06-18T13:16:20Z</time>
      </trkpt>
      <trkpt lat="47.13045" lon="5.99853">
        <ele>431</ele>
        <time>2022-06-18T13:16:42Z</time>
      </trkpt>
      <trkpt lat="47.13068" lon="5.99891">
        <ele>430</ele>
        <time>2022-06-18T13:16:50Z</time>
      </trkpt>
      <trkpt lat="47.1309" lon="5.99905">
        <ele>428</ele>
        <time>2022-06-18T13:16:55Z</time>
      </trkpt>
      <trkpt lat="47.13099" lon="5.99918">
        <ele>428</ele>
        <time>2022-06-18T13:16:58Z</time>
      </trkpt>
      <trkpt lat="47.1311" lon="5.99942">
        <ele>427</ele>
        <time>2022-06-18T13:17:03Z</time>
      </trkpt>
      <trkpt lat="47.13112" lon="5.99986">
        <ele>426</ele>
        <time>2022-06-18T13:17:10Z</time>
      </trkpt>
      <trkpt lat="47.13134" lon="6.00017">
        <ele>424</ele>
        <time>2022-06-18T13:17:17Z</time>
      </trkpt>
      <trkpt lat="47.1314" lon="6.00038">
        <ele>423</ele>
        <time>2022-06-18T13:17:21Z</time>
      </trkpt>
      <trkpt lat="47.13186" lon="6.00071">
        <ele>420</ele>
        <time>2022-06-18T13:17:33Z</time>
      </trkpt>
      <trkpt lat="47.13204" lon="6.00096">
        <ele>420</ele>
        <time>2022-06-18T13:17:38Z</time>
      </trkpt>
      <trkpt lat="47.13305" lon="6.00148">
        <ele>417</ele>
        <time>2022-06-18T13:18:03Z</time>
      </trkpt>
      <trkpt lat="47.13348" lon="6.0016">
        <ele>417</ele>
        <time>2022-06-18T13:18:14Z</time>
      </trkpt>
      <trkpt lat="47.13364" lon="6.0017">
        <ele>418</ele>
        <time>2022-06-18T13:18:18Z</time>
      </trkpt>
      <trkpt lat="47.13376" lon="6.0018">
        <ele>418</ele>
        <time>2022-06-18T13:18:21Z</time>
      </trkpt>
      <trkpt lat="47.13392" lon="6.00209">
        <ele>418</ele>
        <time>2022-06-18T13:18:27Z</time>
      </trkpt>
      <trkpt lat="47.13407" lon="6.00224">
        <ele>419</ele>
        <time>2022-06-18T13:18:31Z</time>
      </trkpt>
      <trkpt lat="47.1345" lon="6.00254">
        <ele>420</ele>
        <time>2022-06-18T13:18:42Z</time>
      </trkpt>
      <trkpt lat="47.13523" lon="6.00349">
        <ele>422</ele>
        <time>2022-06-18T13:19:05Z</time>
      </trkpt>
      <trkpt lat="47.13532" lon="6.00377">
        <ele>423</ele>
        <time>2022-06-18T13:19:10Z</time>
      </trkpt>
      <trkpt lat="47.13535" lon="6.00424">
        <ele>424</ele>
        <time>2022-06-18T13:19:17Z</time>
      </trkpt>
      <trkpt lat="47.13545" lon="6.00468">
        <ele>426</ele>
        <time>2022-06-18T13:19:25Z</time>
      </trkpt>
      <trkpt lat="47.13547" lon="6.00581">
        <ele>429</ele>
        <time>2022-06-18T13:19:43Z</time>
      </trkpt>
      <trkpt lat="47.13529" lon="6.00662">
        <ele>429</ele>
        <time>2022-06-18T13:19:56Z</time>
      </trkpt>
      <trkpt lat="47.13515" lon="6.00782">
        <ele>429</ele>
        <time>2022-06-18T13:20:16Z</time>
      </trkpt>
      <trkpt lat="47.13503" lon="6.00815">
        <ele>430</ele>
        <time>2022-06-18T13:20:21Z</time>
      </trkpt>
      <trkpt lat="47.13471" lon="6.00879">
        <ele>432</ele>
        <time>2022-06-18T13:20:34Z</time>
      </trkpt>
      <trkpt lat="47.13462" lon="6.00916">
        <ele>433</ele>
        <time>2022-06-18T13:20:40Z</time>
      </trkpt>
      <trkpt lat="47.13451" lon="6.00939">
        <ele>433</ele>
        <time>2022-06-18T13:20:45Z</time>
      </trkpt>
      <trkpt lat="47.13417" lon="6.00982">
        <ele>433</ele>
        <time>2022-06-18T13:20:55Z</time>
      </trkpt>
      <trkpt lat="47.13389" lon="6.01038">
        <ele>433</ele>
        <time>2022-06-18T13:21:06Z</time>
      </trkpt>
      <trkpt lat="47.1336" lon="6.01081">
        <ele>433</ele>
        <time>2022-06-18T13:21:16Z</time>
      </trkpt>
      <trkpt lat="47.13342" lon="6.01121">
        <ele>433</ele>
        <time>2022-06-18T13:21:24Z</time>
      </trkpt>
      <trkpt lat="47.13313" lon="6.01155">
        <ele>435</ele>
        <time>2022-06-18T13:21:32Z</time>
      </trkpt>
      <trkpt lat="47.13292" lon="6.01195">
        <ele>435</ele>
        <time>2022-06-18T13:21:40Z</time>
      </trkpt>
      <trkpt lat="47.13272" lon="6.01217">
        <ele>436</ele>
        <time>2022-06-18T13:21:46Z</time>
      </trkpt>
      <trkpt lat="47.13245" lon="6.01236">
        <ele>436</ele>
        <time>2022-06-18T13:21:53Z</time>
      </trkpt>
      <trkpt lat="47.13227" lon="6.01255">
        <ele>437</ele>
        <time>2022-06-18T13:21:58Z</time>
      </trkpt>
      <trkpt lat="47.13206" lon="6.01268">
        <ele>438</ele>
        <time>2022-06-18T13:22:04Z</time>
      </trkpt>
      <trkpt lat="47.1318" lon="6.01297">
        <ele>438</ele>
        <time>2022-06-18T13:22:11Z</time>
      </trkpt>
      <trkpt lat="47.13163" lon="6.01305">
        <ele>438</ele>
        <time>2022-06-18T13:22:15Z</time>
      </trkpt>
      <trkpt lat="47.13132" lon="6.01331">
        <ele>439</ele>
        <time>2022-06-18T13:22:24Z</time>
      </trkpt>
      <trkpt lat="47.13122" lon="6.01335">
        <ele>440</ele>
        <time>2022-06-18T13:22:26Z</time>
      </trkpt>
      <trkpt lat="47.13095" lon="6.01326">
        <ele>441</ele>
        <time>2022-06-18T13:22:33Z</time>
      </trkpt>
      <trkpt lat="47.13066" lon="6.01323">
        <ele>442</ele>
        <time>2022-06-18T13:22:39Z</time>
      </trkpt>
      <trkpt lat="47.13036" lon="6.01286">
        <ele>442</ele>
        <time>2022-06-18T13:22:49Z</time>
      </trkpt>
      <trkpt lat="47.13018" lon="6.0124">
        <ele>442</ele>
        <time>2022-06-18T13:22:57Z</time>
      </trkpt>
      <trkpt lat="47.13015" lon="6.01225">
        <ele>442</ele>
        <time>2022-06-18T13:22:59Z</time>
      </trkpt>
      <trkpt lat="47.13018" lon="6.01216">
        <ele>442</ele>
        <time>2022-06-18T13:23:01Z</time>
      </trkpt>
      <trkpt lat="47.13014" lon="6.01114">
        <ele>443</ele>
        <time>2022-06-18T13:23:17Z</time>
      </trkpt>
      <trkpt lat="47.13007" lon="6.01097">
        <ele>443</ele>
        <time>2022-06-18T13:23:20Z</time>
      </trkpt>
      <trkpt lat="47.12973" lon="6.01045">
        <ele>447</ele>
        <time>2022-06-18T13:23:32Z</time>
      </trkpt>
      <trkpt lat="47.12955" lon="6.01003">
        <ele>449</ele>
        <time>2022-06-18T13:23:40Z</time>
      </trkpt>
      <trkpt lat="47.12947" lon="6.00894">
        <ele>449</ele>
        <time>2022-06-18T13:23:57Z</time>
      </trkpt>
      <trkpt lat="47.12932" lon="6.00868">
        <ele>450</ele>
        <time>2022-06-18T13:24:03Z</time>
      </trkpt>
      <trkpt lat="47.12886" lon="6.0081">
        <ele>453</ele>
        <time>2022-06-18T13:24:17Z</time>
      </trkpt>
      <trkpt lat="47.12865" lon="6.0074">
        <ele>453</ele>
        <time>2022-06-18T13:24:29Z</time>
      </trkpt>
      <trkpt lat="47.12822" lon="6.00697">
        <ele>456</ele>
        <time>2022-06-18T13:24:41Z</time>
      </trkpt>
      <trkpt lat="47.12791" lon="6.00645">
        <ele>458</ele>
        <time>2022-06-18T13:24:52Z</time>
      </trkpt>
      <trkpt lat="47.12783" lon="6.00634">
        <ele>458</ele>
        <time>2022-06-18T13:24:55Z</time>
      </trkpt>
      <trkpt lat="47.12778" lon="6.00635">
        <ele>459</ele>
        <time>2022-06-18T13:24:56Z</time>
      </trkpt>
      <trkpt lat="47.12743" lon="6.00539">
        <ele>459</ele>
        <time>2022-06-18T13:25:13Z</time>
      </trkpt>
      <trkpt lat="47.12733" lon="6.00489">
        <ele>459</ele>
        <time>2022-06-18T13:25:21Z</time>
      </trkpt>
      <trkpt lat="47.12725" lon="6.0047">
        <ele>459</ele>
        <time>2022-06-18T13:25:25Z</time>
      </trkpt>
      <trkpt lat="47.12681" lon="6.00413">
        <ele>461</ele>
        <time>2022-06-18T13:25:39Z</time>
      </trkpt>
      <trkpt lat="47.12658" lon="6.00355">
        <ele>461</ele>
        <time>2022-06-18T13:25:49Z</time>
      </trkpt>
      <trkpt lat="47.12647" lon="6.0034">
        <ele>461</ele>
        <time>2022-06-18T13:25:53Z</time>
      </trkpt>
      <trkpt lat="47.12624" lon="6.00329">
        <ele>462</ele>
        <time>2022-06-18T13:25:58Z</time>
      </trkpt>
      <trkpt lat="47.12601" lon="6.00335">
        <ele>464</ele>
        <time>2022-06-18T13:26:04Z</time>
      </trkpt>
      <trkpt lat="47.12595" lon="6.00333">
        <ele>464</ele>
        <time>2022-06-18T13:26:05Z</time>
      </trkpt>
      <trkpt lat="47.12587" lon="6.00325">
        <ele>464</ele>
        <time>2022-06-18T13:26:08Z</time>
      </trkpt>
      <trkpt lat="47.12569" lon="6.00288">
        <ele>464</ele>
        <time>2022-06-18T13:26:15Z</time>
      </trkpt>
      <trkpt lat="47.12555" lon="6.00269">
        <ele>465</ele>
        <time>2022-06-18T13:26:19Z</time>
      </trkpt>
      <trkpt lat="47.12523" lon="6.00264">
        <ele>466</ele>
        <time>2022-06-18T13:26:27Z</time>
      </trkpt>
      <trkpt lat="47.12466" lon="6.00263">
        <ele>470</ele>
        <time>2022-06-18T13:26:40Z</time>
      </trkpt>
      <trkpt lat="47.12448" lon="6.00255">
        <ele>471</ele>
        <time>2022-06-18T13:26:44Z</time>
      </trkpt>
      <trkpt lat="47.1242" lon="6.00216">
        <ele>471</ele>
        <time>2022-06-18T13:26:53Z</time>
      </trkpt>
      <trkpt lat="47.1238" lon="6.00193">
        <ele>471</ele>
        <time>2022-06-18T13:27:04Z</time>
      </trkpt>
      <trkpt lat="47.12349" lon="6.00194">
        <ele>472</ele>
        <time>2022-06-18T13:27:11Z</time>
      </trkpt>
      <trkpt lat="47.12332" lon="6.00189">
        <ele>473</ele>
        <time>2022-06-18T13:27:15Z</time>
      </trkpt>
      <trkpt lat="47.12312" lon="6.00174">
        <ele>472</ele>
        <time>2022-06-18T13:27:20Z</time>
      </trkpt>
      <trkpt lat="47.12283" lon="6.00164">
        <ele>472</ele>
        <time>2022-06-18T13:27:27Z</time>
      </trkpt>
      <trkpt lat="47.12263" lon="6.00151">
        <ele>472</ele>
        <time>2022-06-18T13:27:32Z</time>
      </trkpt>
      <trkpt lat="47.12242" lon="6.00125">
        <ele>471</ele>
        <time>2022-06-18T13:27:39Z</time>
      </trkpt>
      <trkpt lat="47.12239" lon="6.00113">
        <ele>471</ele>
        <time>2022-06-18T13:27:41Z</time>
      </trkpt>
      <trkpt lat="47.12243" lon="6.00086">
        <ele>471</ele>
        <time>2022-06-18T13:27:45Z</time>
      </trkpt>
      <trkpt lat="47.12276" lon="6">
        <ele>467</ele>
        <time>2022-06-18T13:28:01Z</time>
      </trkpt>
      <trkpt lat="47.12285" lon="5.99956">
        <ele>465</ele>
        <time>2022-06-18T13:28:08Z</time>
      </trkpt>
      <trkpt lat="47.12274" lon="5.99893">
        <ele>464</ele>
        <time>2022-06-18T13:28:18Z</time>
      </trkpt>
      <trkpt lat="47.12261" lon="5.99857">
        <ele>463</ele>
        <time>2022-06-18T13:28:25Z</time>
      </trkpt>
      <trkpt lat="47.12267" lon="5.9978">
        <ele>463</ele>
        <time>2022-06-18T13:28:37Z</time>
      </trkpt>
      <trkpt lat="47.12256" lon="5.99704">
        <ele>464</ele>
        <time>2022-06-18T13:28:49Z</time>
      </trkpt>
      <trkpt lat="47.12228" lon="5.99657">
        <ele>465</ele>
        <time>2022-06-18T13:28:59Z</time>
      </trkpt>
      <trkpt lat="47.12186" lon="5.99645">
        <ele>466</ele>
        <time>2022-06-18T13:29:09Z</time>
      </trkpt>
      <trkpt lat="47.1214" lon="5.99652">
        <ele>467</ele>
        <time>2022-06-18T13:29:20Z</time>
      </trkpt>
      <trkpt lat="47.12123" lon="5.99669">
        <ele>467</ele>
        <time>2022-06-18T13:29:25Z</time>
      </trkpt>
      <trkpt lat="47.12094" lon="5.9971">
        <ele>468</ele>
        <time>2022-06-18T13:29:34Z</time>
      </trkpt>
      <trkpt lat="47.12073" lon="5.99758">
        <ele>468</ele>
        <time>2022-06-18T13:29:43Z</time>
      </trkpt>
      <trkpt lat="47.12029" lon="5.99787">
        <ele>468</ele>
        <time>2022-06-18T13:29:55Z</time>
      </trkpt>
      <trkpt lat="47.12011" lon="5.99807">
        <ele>468</ele>
        <time>2022-06-18T13:30:00Z</time>
      </trkpt>
      <trkpt lat="47.11994" lon="5.99817">
        <ele>468</ele>
        <time>2022-06-18T13:30:04Z</time>
      </trkpt>
      <trkpt lat="47.11955" lon="5.99822">
        <ele>467</ele>
        <time>2022-06-18T13:30:13Z</time>
      </trkpt>
      <trkpt lat="47.11936" lon="5.99829">
        <ele>467</ele>
        <time>2022-06-18T13:30:18Z</time>
      </trkpt>
      <trkpt lat="47.11916" lon="5.99846">
        <ele>466</ele>
        <time>2022-06-18T13:30:23Z</time>
      </trkpt>
      <trkpt lat="47.11891" lon="5.99918">
        <ele>463</ele>
        <time>2022-06-18T13:30:36Z</time>
      </trkpt>
      <trkpt lat="47.11865" lon="5.99945">
        <ele>463</ele>
        <time>2022-06-18T13:30:44Z</time>
      </trkpt>
      <trkpt lat="47.11854" lon="5.99965">
        <ele>463</ele>
        <time>2022-06-18T13:30:48Z</time>
      </trkpt>
      <trkpt lat="47.11808" lon="6.00021">
        <ele>463</ele>
        <time>2022-06-18T13:31:02Z</time>
      </trkpt>
      <trkpt lat="47.11753" lon="6.00152">
        <ele>459</ele>
        <time>2022-06-18T13:31:26Z</time>
      </trkpt>
      <trkpt lat="47.11736" lon="6.00164">
        <ele>459</ele>
        <time>2022-06-18T13:31:31Z</time>
      </trkpt>
      <trkpt lat="47.11693" lon="6.00184">
        <ele>458</ele>
        <time>2022-06-18T13:31:41Z</time>
      </trkpt>
      <trkpt lat="47.11665" lon="6.0018">
        <ele>458</ele>
        <time>2022-06-18T13:31:48Z</time>
      </trkpt>
      <trkpt lat="47.11628" lon="6.00184">
        <ele>456</ele>
        <time>2022-06-18T13:31:56Z</time>
      </trkpt>
      <trkpt lat="47.11611" lon="6.0018">
        <ele>455</ele>
        <time>2022-06-18T13:32:00Z</time>
      </trkpt>
      <trkpt lat="47.11558" lon="6.00213">
        <ele>453</ele>
        <time>2022-06-18T13:32:14Z</time>
      </trkpt>
      <trkpt lat="47.1155" lon="6.00213">
        <ele>454</ele>
        <time>2022-06-18T13:32:16Z</time>
      </trkpt>
      <trkpt lat="47.11547" lon="6.00211">
        <ele>454</ele>
        <time>2022-06-18T13:32:16Z</time>
      </trkpt>
      <trkpt lat="47.11549" lon="6.00191">
        <ele>454</ele>
        <time>2022-06-18T13:32:20Z</time>
      </trkpt>
      <trkpt lat="47.11522" lon="6.0014">
        <ele>456</ele>
        <time>2022-06-18T13:32:30Z</time>
      </trkpt>
      <trkpt lat="47.11515" lon="6.00118">
        <ele>457</ele>
        <time>2022-06-18T13:32:34Z</time>
      </trkpt>
      <trkpt lat="47.11504" lon="6.00063">
        <ele>458</ele>
        <time>2022-06-18T13:32:43Z</time>
      </trkpt>
      <trkpt lat="47.11506" lon="6.00004">
        <ele>458</ele>
        <time>2022-06-18T13:32:52Z</time>
      </trkpt>
      <trkpt lat="47.11492" lon="5.99931">
        <ele>457</ele>
        <time>2022-06-18T13:33:04Z</time>
      </trkpt>
      <trkpt lat="47.11498" lon="5.99899">
        <ele>457</ele>
        <time>2022-06-18T13:33:10Z</time>
      </trkpt>
      <trkpt lat="47.11508" lon="5.99872">
        <ele>457</ele>
        <time>2022-06-18T13:33:14Z</time>
      </trkpt>
      <trkpt lat="47.1151" lon="5.99849">
        <ele>457</ele>
        <time>2022-06-18T13:33:18Z</time>
      </trkpt>
      <trkpt lat="47.11506" lon="5.99826">
        <ele>457</ele>
        <time>2022-06-18T13:33:22Z</time>
      </trkpt>
      <trkpt lat="47.11489" lon="5.99791">
        <ele>456</ele>
        <time>2022-06-18T13:33:29Z</time>
      </trkpt>
      <trkpt lat="47.11457" lon="5.99773">
        <ele>455</ele>
        <time>2022-06-18T13:33:37Z</time>
      </trkpt>
      <trkpt lat="47.11446" lon="5.99761">
        <ele>455</ele>
        <time>2022-06-18T13:33:40Z</time>
      </trkpt>
      <trkpt lat="47.11429" lon="5.99751">
        <ele>454</ele>
        <time>2022-06-18T13:33:44Z</time>
      </trkpt>
      <trkpt lat="47.11397" lon="5.99698">
        <ele>453</ele>
        <time>2022-06-18T13:33:55Z</time>
      </trkpt>
      <trkpt lat="47.11394" lon="5.99679">
        <ele>453</ele>
        <time>2022-06-18T13:33:59Z</time>
      </trkpt>
      <trkpt lat="47.11387" lon="5.99667">
        <ele>453</ele>
        <time>2022-06-18T13:34:01Z</time>
      </trkpt>
      <trkpt lat="47.11358" lon="5.9965">
        <ele>452</ele>
        <time>2022-06-18T13:34:08Z</time>
      </trkpt>
      <trkpt lat="47.11346" lon="5.99647">
        <ele>452</ele>
        <time>2022-06-18T13:34:11Z</time>
      </trkpt>
      <trkpt lat="47.11325" lon="5.99632">
        <ele>451</ele>
        <time>2022-06-18T13:34:17Z</time>
      </trkpt>
      <trkpt lat="47.11288" lon="5.99645">
        <ele>452</ele>
        <time>2022-06-18T13:34:26Z</time>
      </trkpt>
      <trkpt lat="47.11248" lon="5.9962">
        <ele>450</ele>
        <time>2022-06-18T13:34:36Z</time>
      </trkpt>
      <trkpt lat="47.11231" lon="5.99595">
        <ele>449</ele>
        <time>2022-06-18T13:34:41Z</time>
      </trkpt>
      <trkpt lat="47.11215" lon="5.99551">
        <ele>449</ele>
        <time>2022-06-18T13:34:49Z</time>
      </trkpt>
      <trkpt lat="47.11201" lon="5.99536">
        <ele>449</ele>
        <time>2022-06-18T13:34:53Z</time>
      </trkpt>
      <trkpt lat="47.1119" lon="5.99532">
        <ele>449</ele>
        <time>2022-06-18T13:34:56Z</time>
      </trkpt>
      <trkpt lat="47.11162" lon="5.99537">
        <ele>450</ele>
        <time>2022-06-18T13:35:03Z</time>
      </trkpt>
      <trkpt lat="47.11127" lon="5.99526">
        <ele>449</ele>
        <time>2022-06-18T13:35:11Z</time>
      </trkpt>
      <trkpt lat="47.11075" lon="5.99523">
        <ele>448</ele>
        <time>2022-06-18T13:35:23Z</time>
      </trkpt>
      <trkpt lat="47.11014" lon="5.99506">
        <ele>447</ele>
        <time>2022-06-18T13:35:38Z</time>
      </trkpt>
      <trkpt lat="47.10987" lon="5.99494">
        <ele>447</ele>
        <time>2022-06-18T13:35:44Z</time>
      </trkpt>
      <trkpt lat="47.10972" lon="5.99494">
        <ele>446</ele>
        <time>2022-06-18T13:35:48Z</time>
      </trkpt>
      <trkpt lat="47.10941" lon="5.99502">
        <ele>445</ele>
        <time>2022-06-18T13:35:55Z</time>
      </trkpt>
      <trkpt lat="47.10912" lon="5.99486">
        <ele>444</ele>
        <time>2022-06-18T13:36:02Z</time>
      </trkpt>
      <trkpt lat="47.10901" lon="5.99489">
        <ele>443</ele>
        <time>2022-06-18T13:36:05Z</time>
      </trkpt>
      <trkpt lat="47.10868" lon="5.99485">
        <ele>440</ele>
        <time>2022-06-18T13:36:13Z</time>
      </trkpt>
      <trkpt lat="47.10838" lon="5.99494">
        <ele>438</ele>
        <time>2022-06-18T13:36:20Z</time>
      </trkpt>
      <trkpt lat="47.10786" lon="5.99537">
        <ele>434</ele>
        <time>2022-06-18T13:36:34Z</time>
      </trkpt>
      <trkpt lat="47.10779" lon="5.99536">
        <ele>433</ele>
        <time>2022-06-18T13:36:35Z</time>
      </trkpt>
      <trkpt lat="47.10774" lon="5.99526">
        <ele>433</ele>
        <time>2022-06-18T13:36:37Z</time>
      </trkpt>
      <trkpt lat="47.1077" lon="5.99497">
        <ele>433</ele>
        <time>2022-06-18T13:36:42Z</time>
      </trkpt>
      <trkpt lat="47.10773" lon="5.99472">
        <ele>433</ele>
        <time>2022-06-18T13:36:46Z</time>
      </trkpt>
      <trkpt lat="47.10763" lon="5.9945">
        <ele>432</ele>
        <time>2022-06-18T13:36:50Z</time>
      </trkpt>
      <trkpt lat="47.10754" lon="5.99441">
        <ele>432</ele>
        <time>2022-06-18T13:36:53Z</time>
      </trkpt>
      <trkpt lat="47.10745" lon="5.99404">
        <ele>430</ele>
        <time>2022-06-18T13:36:59Z</time>
      </trkpt>
      <trkpt lat="47.10711" lon="5.99345">
        <ele>425</ele>
        <time>2022-06-18T13:37:11Z</time>
      </trkpt>
      <trkpt lat="47.10714" lon="5.99316">
        <ele>425</ele>
        <time>2022-06-18T13:37:16Z</time>
      </trkpt>
      <trkpt lat="47.10704" lon="5.99294">
        <ele>424</ele>
        <time>2022-06-18T13:37:20Z</time>
      </trkpt>
      <trkpt lat="47.1067" lon="5.99254">
        <ele>421</ele>
        <time>2022-06-18T13:37:30Z</time>
      </trkpt>
      <trkpt lat="47.10623" lon="5.99218">
        <ele>419</ele>
        <time>2022-06-18T13:37:43Z</time>
      </trkpt>
      <trkpt lat="47.10594" lon="5.99208">
        <ele>417</ele>
        <time>2022-06-18T13:37:50Z</time>
      </trkpt>
      <trkpt lat="47.10563" lon="5.99209">
        <ele>416</ele>
        <time>2022-06-18T13:37:57Z</time>
      </trkpt>
      <trkpt lat="47.10551" lon="5.99202">
        <ele>415</ele>
        <time>2022-06-18T13:38:00Z</time>
      </trkpt>
      <trkpt lat="47.10546" lon="5.99193">
        <ele>415</ele>
        <time>2022-06-18T13:38:02Z</time>
      </trkpt>
      <trkpt lat="47.10547" lon="5.9918">
        <ele>415</ele>
        <time>2022-06-18T13:38:04Z</time>
      </trkpt>
      <trkpt lat="47.1053" lon="5.99143">
        <ele>414</ele>
        <time>2022-06-18T13:38:11Z</time>
      </trkpt>
      <trkpt lat="47.1053" lon="5.9913">
        <ele>414</ele>
        <time>2022-06-18T13:38:13Z</time>
      </trkpt>
      <trkpt lat="47.10546" lon="5.99102">
        <ele>415</ele>
        <time>2022-06-18T13:38:19Z</time>
      </trkpt>
      <trkpt lat="47.1058" lon="5.9906">
        <ele>416</ele>
        <time>2022-06-18T13:38:29Z</time>
      </trkpt>
      <trkpt lat="47.106" lon="5.99039">
        <ele>416</ele>
        <time>2022-06-18T13:38:35Z</time>
      </trkpt>
      <trkpt lat="47.10645" lon="5.99003">
        <ele>418</ele>
        <time>2022-06-18T13:38:47Z</time>
      </trkpt>
      <trkpt lat="47.1067" lon="5.98976">
        <ele>419</ele>
        <time>2022-06-18T13:38:54Z</time>
      </trkpt>
      <trkpt lat="47.10686" lon="5.98955">
        <ele>420</ele>
        <time>2022-06-18T13:38:59Z</time>
      </trkpt>
      <trkpt lat="47.10708" lon="5.98907">
        <ele>421</ele>
        <time>2022-06-18T13:39:08Z</time>
      </trkpt>
      <trkpt lat="47.10735" lon="5.98867">
        <ele>422</ele>
        <time>2022-06-18T13:39:17Z</time>
      </trkpt>
      <trkpt lat="47.10803" lon="5.98818">
        <ele>424</ele>
        <time>2022-06-18T13:39:35Z</time>
      </trkpt>
      <trkpt lat="47.10827" lon="5.9882">
        <ele>424</ele>
        <time>2022-06-18T13:39:41Z</time>
      </trkpt>
      <trkpt lat="47.10856" lon="5.98805">
        <ele>424</ele>
        <time>2022-06-18T13:39:48Z</time>
      </trkpt>
      <trkpt lat="47.10851" lon="5.98812">
        <ele>424</ele>
        <time>2022-06-18T13:39:49Z</time>
      </trkpt>
      <trkpt lat="47.10859" lon="5.98809">
        <ele>424</ele>
        <time>2022-06-18T13:39:51Z</time>
      </trkpt>
      <trkpt lat="47.10945" lon="5.98691">
        <ele>419</ele>
        <time>2022-06-18T13:40:19Z</time>
      </trkpt>
      <trkpt lat="47.11032" lon="5.98604">
        <ele>418</ele>
        <time>2022-06-18T13:40:43Z</time>
      </trkpt>
      <trkpt lat="47.11044" lon="5.98587">
        <ele>419</ele>
        <time>2022-06-18T13:40:47Z</time>
      </trkpt>
      <trkpt lat="47.11068" lon="5.98522">
        <ele>417</ele>
        <time>2022-06-18T13:40:59Z</time>
      </trkpt>
      <trkpt lat="47.11132" lon="5.98436">
        <ele>419</ele>
        <time>2022-06-18T13:41:19Z</time>
      </trkpt>
      <trkpt lat="47.11166" lon="5.98367">
        <ele>420</ele>
        <time>2022-06-18T13:41:33Z</time>
      </trkpt>
      <trkpt lat="47.11196" lon="5.98331">
        <ele>420</ele>
        <time>2022-06-18T13:41:42Z</time>
      </trkpt>
      <trkpt lat="47.11211" lon="5.98306">
        <ele>419</ele>
        <time>2022-06-18T13:41:47Z</time>
      </trkpt>
      <trkpt lat="47.11246" lon="5.9827">
        <ele>419</ele>
        <time>2022-06-18T13:41:57Z</time>
      </trkpt>
      <trkpt lat="47.11297" lon="5.98186">
        <ele>419</ele>
        <time>2022-06-18T13:42:15Z</time>
      </trkpt>
      <trkpt lat="47.11327" lon="5.98151">
        <ele>419</ele>
        <time>2022-06-18T13:42:24Z</time>
      </trkpt>
      <trkpt lat="47.11361" lon="5.98096">
        <ele>420</ele>
        <time>2022-06-18T13:42:36Z</time>
      </trkpt>
      <trkpt lat="47.1137" lon="5.98074">
        <ele>421</ele>
        <time>2022-06-18T13:42:40Z</time>
      </trkpt>
      <trkpt lat="47.11445" lon="5.97824">
        <ele>425</ele>
        <time>2022-06-18T13:43:23Z</time>
      </trkpt>
      <trkpt lat="47.11453" lon="5.97773">
        <ele>423</ele>
        <time>2022-06-18T13:43:32Z</time>
      </trkpt>
      <trkpt lat="47.11453" lon="5.97746">
        <ele>422</ele>
        <time>2022-06-18T13:43:36Z</time>
      </trkpt>
      <trkpt lat="47.1147" lon="5.97654">
        <ele>419</ele>
        <time>2022-06-18T13:43:51Z</time>
      </trkpt>
      <trkpt lat="47.11494" lon="5.9761">
        <ele>416</ele>
        <time>2022-06-18T13:44:00Z</time>
      </trkpt>
      <trkpt lat="47.11509" lon="5.97572">
        <ele>412</ele>
        <time>2022-06-18T13:44:07Z</time>
      </trkpt>
      <trkpt lat="47.11524" lon="5.97429">
        <ele>402</ele>
        <time>2022-06-18T13:44:30Z</time>
      </trkpt>
      <trkpt lat="47.11549" lon="5.97412">
        <ele>401</ele>
        <time>2022-06-18T13:44:36Z</time>
      </trkpt>
      <trkpt lat="47.11573" lon="5.9739">
        <ele>400</ele>
        <time>2022-06-18T13:44:43Z</time>
      </trkpt>
      <trkpt lat="47.11575" lon="5.97384">
        <ele>400</ele>
        <time>2022-06-18T13:44:44Z</time>
      </trkpt>
      <trkpt lat="47.11571" lon="5.97338">
        <ele>398</ele>
        <time>2022-06-18T13:44:51Z</time>
      </trkpt>
      <trkpt lat="47.11573" lon="5.97319">
        <ele>398</ele>
        <time>2022-06-18T13:44:54Z</time>
      </trkpt>
      <trkpt lat="47.11566" lon="5.9729">
        <ele>397</ele>
        <time>2022-06-18T13:44:59Z</time>
      </trkpt>
      <trkpt lat="47.11467" lon="5.97063">
        <ele>392</ele>
        <time>2022-06-18T13:45:42Z</time>
      </trkpt>
      <trkpt lat="47.1146" lon="5.97049">
        <ele>392</ele>
        <time>2022-06-18T13:45:45Z</time>
      </trkpt>
      <trkpt lat="47.11388" lon="5.96976">
        <ele>389</ele>
        <time>2022-06-18T13:46:05Z</time>
      </trkpt>
      <trkpt lat="47.11367" lon="5.96965">
        <ele>388</ele>
        <time>2022-06-18T13:46:11Z</time>
      </trkpt>
      <trkpt lat="47.11392" lon="5.96915">
        <ele>393</ele>
        <time>2022-06-18T13:46:20Z</time>
      </trkpt>
      <trkpt lat="47.11412" lon="5.96821">
        <ele>394</ele>
        <time>2022-06-18T13:46:36Z</time>
      </trkpt>
      <trkpt lat="47.1146" lon="5.96739">
        <ele>394</ele>
        <time>2022-06-18T13:46:53Z</time>
      </trkpt>
      <trkpt lat="47.11544" lon="5.96636">
        <ele>393</ele>
        <time>2022-06-18T13:47:19Z</time>
      </trkpt>
      <trkpt lat="47.11584" lon="5.96579">
        <ele>392</ele>
        <time>2022-06-18T13:47:32Z</time>
      </trkpt>
      <trkpt lat="47.11607" lon="5.96536">
        <ele>389</ele>
        <time>2022-06-18T13:47:41Z</time>
      </trkpt>
      <trkpt lat="47.11619" lon="5.96492">
        <ele>385</ele>
        <time>2022-06-18T13:47:48Z</time>
      </trkpt>
      <trkpt lat="47.11616" lon="5.96468">
        <ele>382</ele>
        <time>2022-06-18T13:47:52Z</time>
      </trkpt>
      <trkpt lat="47.11607" lon="5.96453">
        <ele>380</ele>
        <time>2022-06-18T13:47:55Z</time>
      </trkpt>
      <trkpt lat="47.11552" lon="5.96397">
        <ele>372</ele>
        <time>2022-06-18T13:48:11Z</time>
      </trkpt>
      <trkpt lat="47.11503" lon="5.96371">
        <ele>368</ele>
        <time>2022-06-18T13:48:23Z</time>
      </trkpt>
      <trkpt lat="47.1148" lon="5.96352">
        <ele>365</ele>
        <time>2022-06-18T13:48:29Z</time>
      </trkpt>
      <trkpt lat="47.11436" lon="5.96332">
        <ele>360</ele>
        <time>2022-06-18T13:48:40Z</time>
      </trkpt>
      <trkpt lat="47.11416" lon="5.96327">
        <ele>358</ele>
        <time>2022-06-18T13:48:45Z</time>
      </trkpt>
      <trkpt lat="47.11413" lon="5.96317">
        <ele>353</ele>
        <time>2022-06-18T13:48:46Z</time>
      </trkpt>
      <trkpt lat="47.11416" lon="5.96312">
        <ele>351</ele>
        <time>2022-06-18T13:48:47Z</time>
      </trkpt>
      <trkpt lat="47.11431" lon="5.9631">
        <ele>351</ele>
        <time>2022-06-18T13:48:51Z</time>
      </trkpt>
      <trkpt lat="47.11442" lon="5.96296">
        <ele>346</ele>
        <time>2022-06-18T13:48:54Z</time>
      </trkpt>
      <trkpt lat="47.11453" lon="5.96289">
        <ele>345</ele>
        <time>2022-06-18T13:48:57Z</time>
      </trkpt>
      <trkpt lat="47.11486" lon="5.96288">
        <ele>348</ele>
        <time>2022-06-18T13:49:05Z</time>
      </trkpt>
      <trkpt lat="47.11518" lon="5.96276">
        <ele>347</ele>
        <time>2022-06-18T13:49:13Z</time>
      </trkpt>
      <trkpt lat="47.11534" lon="5.9626">
        <ele>345</ele>
        <time>2022-06-18T13:49:17Z</time>
      </trkpt>
      <trkpt lat="47.11574" lon="5.96237">
        <ele>344</ele>
        <time>2022-06-18T13:49:27Z</time>
      </trkpt>
      <trkpt lat="47.11605" lon="5.96229">
        <ele>342</ele>
        <time>2022-06-18T13:49:34Z</time>
      </trkpt>
      <trkpt lat="47.11614" lon="5.9623">
        <ele>342</ele>
        <time>2022-06-18T13:49:37Z</time>
      </trkpt>
      <trkpt lat="47.11639" lon="5.96216">
        <ele>338</ele>
        <time>2022-06-18T13:49:43Z</time>
      </trkpt>
      <trkpt lat="47.11664" lon="5.96211">
        <ele>336</ele>
        <time>2022-06-18T13:49:49Z</time>
      </trkpt>
      <trkpt lat="47.11671" lon="5.96201">
        <ele>333</ele>
        <time>2022-06-18T13:49:51Z</time>
      </trkpt>
      <trkpt lat="47.11663" lon="5.96159">
        <ele>324</ele>
        <time>2022-06-18T13:49:58Z</time>
      </trkpt>
      <trkpt lat="47.11665" lon="5.96145">
        <ele>321</ele>
        <time>2022-06-18T13:50:00Z</time>
      </trkpt>
      <trkpt lat="47.11642" lon="5.96136">
        <ele>318</ele>
        <time>2022-06-18T13:50:06Z</time>
      </trkpt>
      <trkpt lat="47.11661" lon="5.96139">
        <ele>319</ele>
        <time>2022-06-18T13:50:10Z</time>
      </trkpt>
      <trkpt lat="47.117" lon="5.9616">
        <ele>319</ele>
        <time>2022-06-18T13:50:20Z</time>
      </trkpt>
      <trkpt lat="47.11729" lon="5.96186">
        <ele>320</ele>
        <time>2022-06-18T13:50:28Z</time>
      </trkpt>
      <trkpt lat="47.11769" lon="5.96233">
        <ele>321</ele>
        <time>2022-06-18T13:50:40Z</time>
      </trkpt>
      <trkpt lat="47.11833" lon="5.9633">
        <ele>320</ele>
        <time>2022-06-18T13:51:01Z</time>
      </trkpt>
      <trkpt lat="47.11963" lon="5.96568">
        <ele>321</ele>
        <time>2022-06-18T13:51:50Z</time>
      </trkpt>
      <trkpt lat="47.12017" lon="5.96655">
        <ele>322</ele>
        <time>2022-06-18T13:52:08Z</time>
      </trkpt>
      <trkpt lat="47.12105" lon="5.96772">
        <ele>324</ele>
        <time>2022-06-18T13:52:36Z</time>
      </trkpt>
      <trkpt lat="47.12185" lon="5.96849">
        <ele>319</ele>
        <time>2022-06-18T13:52:59Z</time>
      </trkpt>
      <trkpt lat="47.12245" lon="5.96888">
        <ele>315</ele>
        <time>2022-06-18T13:53:14Z</time>
      </trkpt>
      <trkpt lat="47.12305" lon="5.96916">
        <ele>310</ele>
        <time>2022-06-18T13:53:29Z</time>
      </trkpt>
      <trkpt lat="47.12516" lon="5.9699">
        <ele>303</ele>
        <time>2022-06-18T13:54:19Z</time>
      </trkpt>
      <trkpt lat="47.1263" lon="5.97011">
        <ele>297</ele>
        <time>2022-06-18T13:54:46Z</time>
      </trkpt>
      <trkpt lat="47.12698" lon="5.97013">
        <ele>297</ele>
        <time>2022-06-18T13:55:02Z</time>
      </trkpt>
      <trkpt lat="47.1273" lon="5.97009">
        <ele>297</ele>
        <time>2022-06-18T13:55:09Z</time>
      </trkpt>
      <trkpt lat="47.1284" lon="5.96982">
        <ele>299</ele>
        <time>2022-06-18T13:55:35Z</time>
      </trkpt>
      <trkpt lat="47.12935" lon="5.96951">
        <ele>299</ele>
        <time>2022-06-18T13:55:58Z</time>
      </trkpt>
      <trkpt lat="47.12963" lon="5.96945">
        <ele>300</ele>
        <time>2022-06-18T13:56:05Z</time>
      </trkpt>
      <trkpt lat="47.13011" lon="5.96942">
        <ele>303</ele>
        <time>2022-06-18T13:56:16Z</time>
      </trkpt>
      <trkpt lat="47.13103" lon="5.96918">
        <ele>299</ele>
        <time>2022-06-18T13:56:38Z</time>
      </trkpt>
      <trkpt lat="47.13148" lon="5.9689">
        <ele>297</ele>
        <time>2022-06-18T13:56:49Z</time>
      </trkpt>
      <trkpt lat="47.13234" lon="5.96807">
        <ele>292</ele>
        <time>2022-06-18T13:57:13Z</time>
      </trkpt>
      <trkpt lat="47.1328" lon="5.96781">
        <ele>291</ele>
        <time>2022-06-18T13:57:25Z</time>
      </trkpt>
      <trkpt lat="47.13324" lon="5.96777">
        <ele>293</ele>
        <time>2022-06-18T13:57:35Z</time>
      </trkpt>
      <trkpt lat="47.13408" lon="5.96793">
        <ele>298</ele>
        <time>2022-06-18T13:57:55Z</time>
      </trkpt>
      <trkpt lat="47.13495" lon="5.96816">
        <ele>303</ele>
        <time>2022-06-18T13:58:15Z</time>
      </trkpt>
      <trkpt lat="47.1353" lon="5.96791">
        <ele>301</ele>
        <time>2022-06-18T13:58:25Z</time>
      </trkpt>
      <trkpt lat="47.13559" lon="5.96757">
        <ele>299</ele>
        <time>2022-06-18T13:58:33Z</time>
      </trkpt>
      <trkpt lat="47.13573" lon="5.96731">
        <ele>296</ele>
        <time>2022-06-18T13:58:39Z</time>
      </trkpt>
      <trkpt lat="47.13565" lon="5.96745">
        <ele>298</ele>
        <time>2022-06-18T13:58:41Z</time>
      </trkpt>
      <trkpt lat="47.13544" lon="5.96746">
        <ele>297</ele>
        <time>2022-06-18T13:58:46Z</time>
      </trkpt>
      <trkpt lat="47.13527" lon="5.96741">
        <ele>295</ele>
        <time>2022-06-18T13:58:50Z</time>
      </trkpt>
      <trkpt lat="47.1344" lon="5.96687">
        <ele>286</ele>
        <time>2022-06-18T13:59:12Z</time>
      </trkpt>
      <trkpt lat="47.13414" lon="5.96675">
        <ele>284</ele>
        <time>2022-06-18T13:59:19Z</time>
      </trkpt>
      <trkpt lat="47.13401" lon="5.96665">
        <ele>283</ele>
        <time>2022-06-18T13:59:22Z</time>
      </trkpt>
      <trkpt lat="47.13392" lon="5.96647">
        <ele>282</ele>
        <time>2022-06-18T13:59:26Z</time>
      </trkpt>
      <trkpt lat="47.13406" lon="5.96551">
        <ele>277</ele>
        <time>2022-06-18T13:59:41Z</time>
      </trkpt>
      <trkpt lat="47.13426" lon="5.96511">
        <ele>276</ele>
        <time>2022-06-18T13:59:49Z</time>
      </trkpt>
      <trkpt lat="47.13439" lon="5.96467">
        <ele>276</ele>
        <time>2022-06-18T13:59:57Z</time>
      </trkpt>
      <trkpt lat="47.13457" lon="5.96433">
        <ele>276</ele>
        <time>2022-06-18T14:00:04Z</time>
      </trkpt>
      <trkpt lat="47.13498" lon="5.96392">
        <ele>276</ele>
        <time>2022-06-18T14:00:15Z</time>
      </trkpt>
      <trkpt lat="47.13552" lon="5.96319">
        <ele>275</ele>
        <time>2022-06-18T14:00:32Z</time>
      </trkpt>
      <trkpt lat="47.13574" lon="5.96281">
        <ele>274</ele>
        <time>2022-06-18T14:00:40Z</time>
      </trkpt>
      <trkpt lat="47.13592" lon="5.96236">
        <ele>273</ele>
        <time>2022-06-18T14:00:49Z</time>
      </trkpt>
      <trkpt lat="47.13672" lon="5.96079">
        <ele>274</ele>
        <time>2022-06-18T14:01:20Z</time>
      </trkpt>
      <trkpt lat="47.13742" lon="5.95998">
        <ele>276</ele>
        <time>2022-06-18T14:01:41Z</time>
      </trkpt>
      <trkpt lat="47.13785" lon="5.95904">
        <ele>276</ele>
        <time>2022-06-18T14:01:59Z</time>
      </trkpt>
      <trkpt lat="47.13799" lon="5.95889">
        <ele>276</ele>
        <time>2022-06-18T14:02:03Z</time>
      </trkpt>
      <trkpt lat="47.1382" lon="5.95875">
        <ele>276</ele>
        <time>2022-06-18T14:02:08Z</time>
      </trkpt>
      <trkpt lat="47.13855" lon="5.95873">
        <ele>277</ele>
        <time>2022-06-18T14:02:16Z</time>
      </trkpt>
      <trkpt lat="47.13876" lon="5.95863">
        <ele>277</ele>
        <time>2022-06-18T14:02:21Z</time>
      </trkpt>
      <trkpt lat="47.13938" lon="5.95797">
        <ele>278</ele>
        <time>2022-06-18T14:02:39Z</time>
      </trkpt>
      <trkpt lat="47.13957" lon="5.95784">
        <ele>278</ele>
        <time>2022-06-18T14:02:44Z</time>
      </trkpt>
      <trkpt lat="47.1397" lon="5.95807">
        <ele>279</ele>
        <time>2022-06-18T14:02:49Z</time>
      </trkpt>
      <trkpt lat="47.14007" lon="5.95928">
        <ele>282</ele>
        <time>2022-06-18T14:03:10Z</time>
      </trkpt>
      <trkpt lat="47.1401" lon="5.9595">
        <ele>283</ele>
        <time>2022-06-18T14:03:14Z</time>
      </trkpt>
      <trkpt lat="47.1402" lon="5.95963">
        <ele>284</ele>
        <time>2022-06-18T14:03:17Z</time>
      </trkpt>
      <trkpt lat="47.14068" lon="5.96003">
        <ele>289</ele>
        <time>2022-06-18T14:03:30Z</time>
      </trkpt>
      <trkpt lat="47.14113" lon="5.95999">
        <ele>291</ele>
        <time>2022-06-18T14:03:40Z</time>
      </trkpt>
      <trkpt lat="47.14129" lon="5.95992">
        <ele>290</ele>
        <time>2022-06-18T14:03:44Z</time>
      </trkpt>
      <trkpt lat="47.14191" lon="5.96011">
        <ele>293</ele>
        <time>2022-06-18T14:03:59Z</time>
      </trkpt>
      <trkpt lat="47.14192" lon="5.96053">
        <ele>299</ele>
        <time>2022-06-18T14:04:05Z</time>
      </trkpt>
      <trkpt lat="47.14188" lon="5.96092">
        <ele>305</ele>
        <time>2022-06-18T14:04:12Z</time>
      </trkpt>
      <trkpt lat="47.14193" lon="5.96104">
        <ele>307</ele>
        <time>2022-06-18T14:04:14Z</time>
      </trkpt>
      <trkpt lat="47.14232" lon="5.96145">
        <ele>313</ele>
        <time>2022-06-18T14:04:25Z</time>
      </trkpt>
      <trkpt lat="47.14277" lon="5.96215">
        <ele>322</ele>
        <time>2022-06-18T14:04:40Z</time>
      </trkpt>
      <trkpt lat="47.14304" lon="5.96284">
        <ele>330</ele>
        <time>2022-06-18T14:04:53Z</time>
      </trkpt>
      <trkpt lat="47.14331" lon="5.96307">
        <ele>330</ele>
        <time>2022-06-18T14:05:00Z</time>
      </trkpt>
      <trkpt lat="47.14357" lon="5.96348">
        <ele>331</ele>
        <time>2022-06-18T14:05:09Z</time>
      </trkpt>
      <trkpt lat="47.14374" lon="5.96392">
        <ele>334</ele>
        <time>2022-06-18T14:05:17Z</time>
      </trkpt>
      <trkpt lat="47.14415" lon="5.96473">
        <ele>340</ele>
        <time>2022-06-18T14:05:33Z</time>
      </trkpt>
      <trkpt lat="47.14453" lon="5.96532">
        <ele>343</ele>
        <time>2022-06-18T14:05:46Z</time>
      </trkpt>
      <trkpt lat="47.14494" lon="5.96614">
        <ele>352</ele>
        <time>2022-06-18T14:06:02Z</time>
      </trkpt>
      <trkpt lat="47.14503" lon="5.96623">
        <ele>353</ele>
        <time>2022-06-18T14:06:05Z</time>
      </trkpt>
      <trkpt lat="47.14521" lon="5.96631">
        <ele>353</ele>
        <time>2022-06-18T14:06:09Z</time>
      </trkpt>
      <trkpt lat="47.1456" lon="5.96671">
        <ele>358</ele>
        <time>2022-06-18T14:06:20Z</time>
      </trkpt>
      <trkpt lat="47.14619" lon="5.96753">
        <ele>366</ele>
        <time>2022-06-18T14:06:39Z</time>
      </trkpt>
      <trkpt lat="47.14653" lon="5.96777">
        <ele>367</ele>
        <time>2022-06-18T14:06:48Z</time>
      </trkpt>
      <trkpt lat="47.14674" lon="5.96801">
        <ele>369</ele>
        <time>2022-06-18T14:06:54Z</time>
      </trkpt>
      <trkpt lat="47.14729" lon="5.96846">
        <ele>375</ele>
        <time>2022-06-18T14:07:09Z</time>
      </trkpt>
      <trkpt lat="47.14755" lon="5.96901">
        <ele>386</ele>
        <time>2022-06-18T14:07:20Z</time>
      </trkpt>
      <trkpt lat="47.14772" lon="5.9692">
        <ele>391</ele>
        <time>2022-06-18T14:07:25Z</time>
      </trkpt>
      <trkpt lat="47.14799" lon="5.96939">
        <ele>395</ele>
        <time>2022-06-18T14:07:32Z</time>
      </trkpt>
      <trkpt lat="47.14825" lon="5.96971">
        <ele>401</ele>
        <time>2022-06-18T14:07:40Z</time>
      </trkpt>
      <trkpt lat="47.1483" lon="5.97017">
        <ele>404</ele>
        <time>2022-06-18T14:07:47Z</time>
      </trkpt>
      <trkpt lat="47.14868" lon="5.97003">
        <ele>406</ele>
        <time>2022-06-18T14:07:56Z</time>
      </trkpt>
      <trkpt lat="47.14892" lon="5.96984">
        <ele>405</ele>
        <time>2022-06-18T14:08:03Z</time>
      </trkpt>
      <trkpt lat="47.14899" lon="5.96945">
        <ele>401</ele>
        <time>2022-06-18T14:08:09Z</time>
      </trkpt>
      <trkpt lat="47.14908" lon="5.96933">
        <ele>400</ele>
        <time>2022-06-18T14:08:12Z</time>
      </trkpt>
      <trkpt lat="47.14911" lon="5.96909">
        <ele>395</ele>
        <time>2022-06-18T14:08:16Z</time>
      </trkpt>
      <trkpt lat="47.14916" lon="5.96905">
        <ele>394</ele>
        <time>2022-06-18T14:08:17Z</time>
      </trkpt>
      <trkpt lat="47.14925" lon="5.96912">
        <ele>395</ele>
        <time>2022-06-18T14:08:19Z</time>
      </trkpt>
      <trkpt lat="47.14939" lon="5.96941">
        <ele>398</ele>
        <time>2022-06-18T14:08:25Z</time>
      </trkpt>
      <trkpt lat="47.14951" lon="5.96947">
        <ele>397</ele>
        <time>2022-06-18T14:08:28Z</time>
      </trkpt>
      <trkpt lat="47.1496" lon="5.96962">
        <ele>398</ele>
        <time>2022-06-18T14:08:31Z</time>
      </trkpt>
      <trkpt lat="47.14994" lon="5.96967">
        <ele>395</ele>
        <time>2022-06-18T14:08:39Z</time>
      </trkpt>
      <trkpt lat="47.1501" lon="5.96976">
        <ele>394</ele>
        <time>2022-06-18T14:08:43Z</time>
      </trkpt>
      <trkpt lat="47.15029" lon="5.96974">
        <ele>392</ele>
        <time>2022-06-18T14:08:48Z</time>
      </trkpt>
      <trkpt lat="47.15063" lon="5.96999">
        <ele>390</ele>
        <time>2022-06-18T14:08:56Z</time>
      </trkpt>
      <trkpt lat="47.15081" lon="5.9708">
        <ele>395</ele>
        <time>2022-06-18T14:09:10Z</time>
      </trkpt>
      <trkpt lat="47.151" lon="5.97131">
        <ele>395</ele>
        <time>2022-06-18T14:09:19Z</time>
      </trkpt>
      <trkpt lat="47.15123" lon="5.97172">
        <ele>396</ele>
        <time>2022-06-18T14:09:28Z</time>
      </trkpt>
      <trkpt lat="47.1513" lon="5.97206">
        <ele>396</ele>
        <time>2022-06-18T14:09:33Z</time>
      </trkpt>
      <trkpt lat="47.15137" lon="5.97216">
        <ele>397</ele>
        <time>2022-06-18T14:09:36Z</time>
      </trkpt>
      <trkpt lat="47.15178" lon="5.97252">
        <ele>399</ele>
        <time>2022-06-18T14:09:47Z</time>
      </trkpt>
      <trkpt lat="47.15202" lon="5.97262">
        <ele>399</ele>
        <time>2022-06-18T14:09:53Z</time>
      </trkpt>
      <trkpt lat="47.15215" lon="5.97272">
        <ele>399</ele>
        <time>2022-06-18T14:09:56Z</time>
      </trkpt>
      <trkpt lat="47.15299" lon="5.97277">
        <ele>400</ele>
        <time>2022-06-18T14:10:16Z</time>
      </trkpt>
      <trkpt lat="47.1532" lon="5.97269">
        <ele>400</ele>
        <time>2022-06-18T14:10:21Z</time>
      </trkpt>
      <trkpt lat="47.15333" lon="5.97256">
        <ele>399</ele>
        <time>2022-06-18T14:10:24Z</time>
      </trkpt>
      <trkpt lat="47.1536" lon="5.97218">
        <ele>401</ele>
        <time>2022-06-18T14:10:33Z</time>
      </trkpt>
      <trkpt lat="47.15375" lon="5.97177">
        <ele>400</ele>
        <time>2022-06-18T14:10:41Z</time>
      </trkpt>
      <trkpt lat="47.15389" lon="5.97152">
        <ele>401</ele>
        <time>2022-06-18T14:10:46Z</time>
      </trkpt>
      <trkpt lat="47.15424" lon="5.97104">
        <ele>402</ele>
        <time>2022-06-18T14:10:57Z</time>
      </trkpt>
      <trkpt lat="47.15491" lon="5.97043">
        <ele>401</ele>
        <time>2022-06-18T14:11:15Z</time>
      </trkpt>
      <trkpt lat="47.15509" lon="5.97022">
        <ele>400</ele>
        <time>2022-06-18T14:11:21Z</time>
      </trkpt>
      <trkpt lat="47.15515" lon="5.97005">
        <ele>398</ele>
        <time>2022-06-18T14:11:24Z</time>
      </trkpt>
      <trkpt lat="47.15516" lon="5.96991">
        <ele>398</ele>
        <time>2022-06-18T14:11:26Z</time>
      </trkpt>
      <trkpt lat="47.15503" lon="5.96952">
        <ele>398</ele>
        <time>2022-06-18T14:11:33Z</time>
      </trkpt>
      <trkpt lat="47.15489" lon="5.96885">
        <ele>398</ele>
        <time>2022-06-18T14:11:44Z</time>
      </trkpt>
      <trkpt lat="47.15483" lon="5.96831">
        <ele>397</ele>
        <time>2022-06-18T14:11:53Z</time>
      </trkpt>
      <trkpt lat="47.15492" lon="5.9672">
        <ele>394</ele>
        <time>2022-06-18T14:12:10Z</time>
      </trkpt>
      <trkpt lat="47.15491" lon="5.96691">
        <ele>393</ele>
        <time>2022-06-18T14:12:15Z</time>
      </trkpt>
      <trkpt lat="47.15495" lon="5.96682">
        <ele>393</ele>
        <time>2022-06-18T14:12:17Z</time>
      </trkpt>
      <trkpt lat="47.15544" lon="5.96676">
        <ele>391</ele>
        <time>2022-06-18T14:12:28Z</time>
      </trkpt>
      <trkpt lat="47.15555" lon="5.9668">
        <ele>391</ele>
        <time>2022-06-18T14:12:31Z</time>
      </trkpt>
      <trkpt lat="47.15564" lon="5.96695">
        <ele>390</ele>
        <time>2022-06-18T14:12:34Z</time>
      </trkpt>
      <trkpt lat="47.15573" lon="5.96702">
        <ele>389</ele>
        <time>2022-06-18T14:12:36Z</time>
      </trkpt>
      <trkpt lat="47.15603" lon="5.96709">
        <ele>387</ele>
        <time>2022-06-18T14:12:43Z</time>
      </trkpt>
      <trkpt lat="47.15653" lon="5.96703">
        <ele>383</ele>
        <time>2022-06-18T14:12:55Z</time>
      </trkpt>
      <trkpt lat="47.15674" lon="5.9671">
        <ele>380</ele>
        <time>2022-06-18T14:13:00Z</time>
      </trkpt>
      <trkpt lat="47.15693" lon="5.9675">
        <ele>374</ele>
        <time>2022-06-18T14:13:08Z</time>
      </trkpt>
      <trkpt lat="47.15703" lon="5.96793">
        <ele>374</ele>
        <time>2022-06-18T14:13:15Z</time>
      </trkpt>
      <trkpt lat="47.15736" lon="5.96821">
        <ele>369</ele>
        <time>2022-06-18T14:13:24Z</time>
      </trkpt>
      <trkpt lat="47.15753" lon="5.96853">
        <ele>368</ele>
        <time>2022-06-18T14:13:31Z</time>
      </trkpt>
      <trkpt lat="47.15763" lon="5.96858">
        <ele>366</ele>
        <time>2022-06-18T14:13:33Z</time>
      </trkpt>
      <trkpt lat="47.15783" lon="5.96855">
        <ele>362</ele>
        <time>2022-06-18T14:13:38Z</time>
      </trkpt>
      <trkpt lat="47.15796" lon="5.96843">
        <ele>359</ele>
        <time>2022-06-18T14:13:41Z</time>
      </trkpt>
      <trkpt lat="47.158" lon="5.96834">
        <ele>358</ele>
        <time>2022-06-18T14:13:43Z</time>
      </trkpt>
      <trkpt lat="47.15801" lon="5.96795">
        <ele>355</ele>
        <time>2022-06-18T14:13:49Z</time>
      </trkpt>
      <trkpt lat="47.15793" lon="5.96767">
        <ele>355</ele>
        <time>2022-06-18T14:13:54Z</time>
      </trkpt>
      <trkpt lat="47.15833" lon="5.96716">
        <ele>346</ele>
        <time>2022-06-18T14:14:06Z</time>
      </trkpt>
      <trkpt lat="47.15853" lon="5.96706">
        <ele>344</ele>
        <time>2022-06-18T14:14:11Z</time>
      </trkpt>
      <trkpt lat="47.15883" lon="5.96708">
        <ele>343</ele>
        <time>2022-06-18T14:14:18Z</time>
      </trkpt>
      <trkpt lat="47.15896" lon="5.96705">
        <ele>342</ele>
        <time>2022-06-18T14:14:21Z</time>
      </trkpt>
      <trkpt lat="47.15923" lon="5.96684">
        <ele>343</ele>
        <time>2022-06-18T14:14:28Z</time>
      </trkpt>
      <trkpt lat="47.15941" lon="5.96677">
        <ele>345</ele>
        <time>2022-06-18T14:14:33Z</time>
      </trkpt>
      <trkpt lat="47.15973" lon="5.96679">
        <ele>346</ele>
        <time>2022-06-18T14:14:40Z</time>
      </trkpt>
      <trkpt lat="47.15978" lon="5.96676">
        <ele>347</ele>
        <time>2022-06-18T14:14:42Z</time>
      </trkpt>
      <trkpt lat="47.15982" lon="5.96663">
        <ele>348</ele>
        <time>2022-06-18T14:14:44Z</time>
      </trkpt>
      <trkpt lat="47.15977" lon="5.96623">
        <ele>350</ele>
        <time>2022-06-18T14:14:50Z</time>
      </trkpt>
      <trkpt lat="47.15985" lon="5.96547">
        <ele>354</ele>
        <time>2022-06-18T14:15:03Z</time>
      </trkpt>
      <trkpt lat="47.15989" lon="5.96543">
        <ele>354</ele>
        <time>2022-06-18T14:15:04Z</time>
      </trkpt>
      <trkpt lat="47.16002" lon="5.96547">
        <ele>355</ele>
        <time>2022-06-18T14:15:07Z</time>
      </trkpt>
      <trkpt lat="47.16033" lon="5.96585">
        <ele>355</ele>
        <time>2022-06-18T14:15:16Z</time>
      </trkpt>
      <trkpt lat="47.16056" lon="5.96603">
        <ele>354</ele>
        <time>2022-06-18T14:15:22Z</time>
      </trkpt>
      <trkpt lat="47.16099" lon="5.9665">
        <ele>352</ele>
        <time>2022-06-18T14:15:35Z</time>
      </trkpt>
      <trkpt lat="47.16121" lon="5.96655">
        <ele>354</ele>
        <time>2022-06-18T14:15:40Z</time>
      </trkpt>
      <trkpt lat="47.16175" lon="5.96656">
        <ele>358</ele>
        <time>2022-06-18T14:15:53Z</time>
      </trkpt>
      <trkpt lat="47.16184" lon="5.96653">
        <ele>358</ele>
        <time>2022-06-18T14:15:55Z</time>
      </trkpt>
      <trkpt lat="47.162" lon="5.96639">
        <ele>359</ele>
        <time>2022-06-18T14:15:59Z</time>
      </trkpt>
      <trkpt lat="47.16244" lon="5.96553">
        <ele>364</ele>
        <time>2022-06-18T14:16:16Z</time>
      </trkpt>
      <trkpt lat="47.1626" lon="5.96513">
        <ele>365</ele>
        <time>2022-06-18T14:16:24Z</time>
      </trkpt>
      <trkpt lat="47.16271" lon="5.96443">
        <ele>374</ele>
        <time>2022-06-18T14:16:35Z</time>
      </trkpt>
      <trkpt lat="47.16281" lon="5.96423">
        <ele>377</ele>
        <time>2022-06-18T14:16:39Z</time>
      </trkpt>
      <trkpt lat="47.16288" lon="5.96418">
        <ele>378</ele>
        <time>2022-06-18T14:16:41Z</time>
      </trkpt>
      <trkpt lat="47.16335" lon="5.9642">
        <ele>379</ele>
        <time>2022-06-18T14:16:52Z</time>
      </trkpt>
      <trkpt lat="47.16398" lon="5.9644">
        <ele>381</ele>
        <time>2022-06-18T14:17:07Z</time>
      </trkpt>
      <trkpt lat="47.16429" lon="5.96442">
        <ele>384</ele>
        <time>2022-06-18T14:17:14Z</time>
      </trkpt>
      <trkpt lat="47.1647" lon="5.96465">
        <ele>383</ele>
        <time>2022-06-18T14:17:24Z</time>
      </trkpt>
      <trkpt lat="47.16484" lon="5.96467">
        <ele>385</ele>
        <time>2022-06-18T14:17:28Z</time>
      </trkpt>
      <trkpt lat="47.16497" lon="5.96422">
        <ele>395</ele>
        <time>2022-06-18T14:17:35Z</time>
      </trkpt>
      <trkpt lat="47.16514" lon="5.96389">
        <ele>400</ele>
        <time>2022-06-18T14:17:42Z</time>
      </trkpt>
      <trkpt lat="47.16519" lon="5.96368">
        <ele>402</ele>
        <time>2022-06-18T14:17:45Z</time>
      </trkpt>
      <trkpt lat="47.16514" lon="5.96348">
        <ele>404</ele>
        <time>2022-06-18T14:17:49Z</time>
      </trkpt>
      <trkpt lat="47.16482" lon="5.96301">
        <ele>406</ele>
        <time>2022-06-18T14:17:59Z</time>
      </trkpt>
      <trkpt lat="47.16473" lon="5.96277">
        <ele>407</ele>
        <time>2022-06-18T14:18:04Z</time>
      </trkpt>
      <trkpt lat="47.16476" lon="5.96239">
        <ele>406</ele>
        <time>2022-06-18T14:18:10Z</time>
      </trkpt>
      <trkpt lat="47.16489" lon="5.96218">
        <ele>403</ele>
        <time>2022-06-18T14:18:14Z</time>
      </trkpt>
      <trkpt lat="47.16506" lon="5.96206">
        <ele>401</ele>
        <time>2022-06-18T14:18:19Z</time>
      </trkpt>
      <trkpt lat="47.16553" lon="5.96213">
        <ele>399</ele>
        <time>2022-06-18T14:18:30Z</time>
      </trkpt>
      <trkpt lat="47.16573" lon="5.96212">
        <ele>398</ele>
        <time>2022-06-18T14:18:34Z</time>
      </trkpt>
      <trkpt lat="47.16601" lon="5.96193">
        <ele>394</ele>
        <time>2022-06-18T14:18:42Z</time>
      </trkpt>
      <trkpt lat="47.16642" lon="5.9615">
        <ele>388</ele>
        <time>2022-06-18T14:18:53Z</time>
      </trkpt>
      <trkpt lat="47.16702" lon="5.96137">
        <ele>385</ele>
        <time>2022-06-18T14:19:07Z</time>
      </trkpt>
      <trkpt lat="47.16719" lon="5.96123">
        <ele>383</ele>
        <time>2022-06-18T14:19:12Z</time>
      </trkpt>
      <trkpt lat="47.16747" lon="5.96056">
        <ele>378</ele>
        <time>2022-06-18T14:19:25Z</time>
      </trkpt>
      <trkpt lat="47.16753" lon="5.96005">
        <ele>375</ele>
        <time>2022-06-18T14:19:33Z</time>
      </trkpt>
      <trkpt lat="47.16742" lon="5.95934">
        <ele>375</ele>
        <time>2022-06-18T14:19:44Z</time>
      </trkpt>
      <trkpt lat="47.1671" lon="5.95807">
        <ele>369</ele>
        <time>2022-06-18T14:20:06Z</time>
      </trkpt>
      <trkpt lat="47.16691" lon="5.95753">
        <ele>368</ele>
        <time>2022-06-18T14:20:15Z</time>
      </trkpt>
      <trkpt lat="47.16694" lon="5.95708">
        <ele>368</ele>
        <time>2022-06-18T14:20:23Z</time>
      </trkpt>
      <trkpt lat="47.16675" lon="5.95685">
        <ele>371</ele>
        <time>2022-06-18T14:20:28Z</time>
      </trkpt>
      <trkpt lat="47.16495" lon="5.95532">
        <ele>374</ele>
        <time>2022-06-18T14:21:17Z</time>
      </trkpt>
      <trkpt lat="47.16464" lon="5.95514">
        <ele>375</ele>
        <time>2022-06-18T14:21:25Z</time>
      </trkpt>
      <trkpt lat="47.16421" lon="5.95497">
        <ele>378</ele>
        <time>2022-06-18T14:21:35Z</time>
      </trkpt>
      <trkpt lat="47.16379" lon="5.95378">
        <ele>394</ele>
        <time>2022-06-18T14:21:56Z</time>
      </trkpt>
      <trkpt lat="47.16362" lon="5.95342">
        <ele>398</ele>
        <time>2022-06-18T14:22:03Z</time>
      </trkpt>
      <trkpt lat="47.16333" lon="5.95301">
        <ele>400</ele>
        <time>2022-06-18T14:22:13Z</time>
      </trkpt>
      <trkpt lat="47.16318" lon="5.95271">
        <ele>401</ele>
        <time>2022-06-18T14:22:19Z</time>
      </trkpt>
      <trkpt lat="47.16271" lon="5.95205">
        <ele>400</ele>
        <time>2022-06-18T14:22:34Z</time>
      </trkpt>
      <trkpt lat="47.16221" lon="5.95103">
        <ele>402</ele>
        <time>2022-06-18T14:22:54Z</time>
      </trkpt>
      <trkpt lat="47.16172" lon="5.95036">
        <ele>404</ele>
        <time>2022-06-18T14:23:09Z</time>
      </trkpt>
      <trkpt lat="47.16114" lon="5.94946">
        <ele>401</ele>
        <time>2022-06-18T14:23:29Z</time>
      </trkpt>
      <trkpt lat="47.16104" lon="5.94923">
        <ele>402</ele>
        <time>2022-06-18T14:23:33Z</time>
      </trkpt>
      <trkpt lat="47.16089" lon="5.94865">
        <ele>404</ele>
        <time>2022-06-18T14:23:43Z</time>
      </trkpt>
      <trkpt lat="47.16065" lon="5.94822">
        <ele>405</ele>
        <time>2022-06-18T14:23:52Z</time>
      </trkpt>
      <trkpt lat="47.16035" lon="5.94781">
        <ele>403</ele>
        <time>2022-06-18T14:24:02Z</time>
      </trkpt>
      <trkpt lat="47.16027" lon="5.94756">
        <ele>404</ele>
        <time>2022-06-18T14:24:06Z</time>
      </trkpt>
      <trkpt lat="47.15999" lon="5.94706">
        <ele>407</ele>
        <time>2022-06-18T14:24:16Z</time>
      </trkpt>
      <trkpt lat="47.15949" lon="5.94601">
        <ele>403</ele>
        <time>2022-06-18T14:24:37Z</time>
      </trkpt>
      <trkpt lat="47.15946" lon="5.94578">
        <ele>403</ele>
        <time>2022-06-18T14:24:40Z</time>
      </trkpt>
      <trkpt lat="47.15933" lon="5.94539">
        <ele>404</ele>
        <time>2022-06-18T14:24:47Z</time>
      </trkpt>
      <trkpt lat="47.15934" lon="5.94493">
        <ele>403</ele>
        <time>2022-06-18T14:24:55Z</time>
      </trkpt>
      <trkpt lat="47.15916" lon="5.9442">
        <ele>406</ele>
        <time>2022-06-18T14:25:07Z</time>
      </trkpt>
      <trkpt lat="47.15914" lon="5.94383">
        <ele>402</ele>
        <time>2022-06-18T14:25:13Z</time>
      </trkpt>
      <trkpt lat="47.15902" lon="5.94332">
        <ele>399</ele>
        <time>2022-06-18T14:25:21Z</time>
      </trkpt>
      <trkpt lat="47.15889" lon="5.94309">
        <ele>398</ele>
        <time>2022-06-18T14:25:26Z</time>
      </trkpt>
      <trkpt lat="47.15872" lon="5.94297">
        <ele>400</ele>
        <time>2022-06-18T14:25:31Z</time>
      </trkpt>
      <trkpt lat="47.15853" lon="5.94291">
        <ele>404</ele>
        <time>2022-06-18T14:25:35Z</time>
      </trkpt>
      <trkpt lat="47.15841" lon="5.94273">
        <ele>406</ele>
        <time>2022-06-18T14:25:39Z</time>
      </trkpt>
      <trkpt lat="47.15843" lon="5.94237">
        <ele>404</ele>
        <time>2022-06-18T14:25:45Z</time>
      </trkpt>
      <trkpt lat="47.15814" lon="5.9412">
        <ele>395</ele>
        <time>2022-06-18T14:26:05Z</time>
      </trkpt>
      <trkpt lat="47.15794" lon="5.94058">
        <ele>390</ele>
        <time>2022-06-18T14:26:16Z</time>
      </trkpt>
      <trkpt lat="47.15763" lon="5.93998">
        <ele>385</ele>
        <time>2022-06-18T14:26:28Z</time>
      </trkpt>
      <trkpt lat="47.15744" lon="5.93937">
        <ele>379</ele>
        <time>2022-06-18T14:26:38Z</time>
      </trkpt>
      <trkpt lat="47.15748" lon="5.93871">
        <ele>368</ele>
        <time>2022-06-18T14:26:49Z</time>
      </trkpt>
      <trkpt lat="47.15784" lon="5.93762">
        <ele>352</ele>
        <time>2022-06-18T14:27:08Z</time>
      </trkpt>
      <trkpt lat="47.15788" lon="5.93759">
        <ele>351</ele>
        <time>2022-06-18T14:27:09Z</time>
      </trkpt>
      <trkpt lat="47.15796" lon="5.93761">
        <ele>350</ele>
        <time>2022-06-18T14:27:11Z</time>
      </trkpt>
      <trkpt lat="47.15834" lon="5.93806">
        <ele>345</ele>
        <time>2022-06-18T14:27:22Z</time>
      </trkpt>
      <trkpt lat="47.15844" lon="5.93798">
        <ele>343</ele>
        <time>2022-06-18T14:27:25Z</time>
      </trkpt>
      <trkpt lat="47.15849" lon="5.93784">
        <ele>341</ele>
        <time>2022-06-18T14:27:27Z</time>
      </trkpt>
      <trkpt lat="47.15849" lon="5.93751">
        <ele>340</ele>
        <time>2022-06-18T14:27:33Z</time>
      </trkpt>
      <trkpt lat="47.15831" lon="5.9366">
        <ele>337</ele>
        <time>2022-06-18T14:27:48Z</time>
      </trkpt>
      <trkpt lat="47.15828" lon="5.93611">
        <ele>331</ele>
        <time>2022-06-18T14:27:56Z</time>
      </trkpt>
      <trkpt lat="47.15832" lon="5.935">
        <ele>319</ele>
        <time>2022-06-18T14:28:13Z</time>
      </trkpt>
      <trkpt lat="47.15828" lon="5.93415">
        <ele>310</ele>
        <time>2022-06-18T14:28:27Z</time>
      </trkpt>
      <trkpt lat="47.15802" lon="5.93278">
        <ele>306</ele>
        <time>2022-06-18T14:28:49Z</time>
      </trkpt>
      <trkpt lat="47.15798" lon="5.93222">
        <ele>305</ele>
        <time>2022-06-18T14:28:58Z</time>
      </trkpt>
      <trkpt lat="47.15801" lon="5.93183">
        <ele>305</ele>
        <time>2022-06-18T14:29:05Z</time>
      </trkpt>
      <trkpt lat="47.15814" lon="5.9312">
        <ele>306</ele>
        <time>2022-06-18T14:29:15Z</time>
      </trkpt>
      <trkpt lat="47.15838" lon="5.93067">
        <ele>307</ele>
        <time>2022-06-18T14:29:25Z</time>
      </trkpt>
      <trkpt lat="47.15838" lon="5.93018">
        <ele>310</ele>
        <time>2022-06-18T14:29:33Z</time>
      </trkpt>
      <trkpt lat="47.15875" lon="5.92947">
        <ele>314</ele>
        <time>2022-06-18T14:29:47Z</time>
      </trkpt>
      <trkpt lat="47.15879" lon="5.92946">
        <ele>315</ele>
        <time>2022-06-18T14:29:48Z</time>
      </trkpt>
      <trkpt lat="47.15884" lon="5.92951">
        <ele>314</ele>
        <time>2022-06-18T14:29:49Z</time>
      </trkpt>
      <trkpt lat="47.15923" lon="5.93014">
        <ele>311</ele>
        <time>2022-06-18T14:30:03Z</time>
      </trkpt>
      <trkpt lat="47.15991" lon="5.93088">
        <ele>308</ele>
        <time>2022-06-18T14:30:23Z</time>
      </trkpt>
      <trkpt lat="47.1601" lon="5.93118">
        <ele>307</ele>
        <time>2022-06-18T14:30:29Z</time>
      </trkpt>
      <trkpt lat="47.16025" lon="5.93122">
        <ele>307</ele>
        <time>2022-06-18T14:30:33Z</time>
      </trkpt>
      <trkpt lat="47.16034" lon="5.93119">
        <ele>307</ele>
        <time>2022-06-18T14:30:35Z</time>
      </trkpt>
      <trkpt lat="47.16094" lon="5.93056">
        <ele>315</ele>
        <time>2022-06-18T14:30:52Z</time>
      </trkpt>
      <trkpt lat="47.16142" lon="5.93024">
        <ele>324</ele>
        <time>2022-06-18T14:31:04Z</time>
      </trkpt>
      <trkpt lat="47.16166" lon="5.93001">
        <ele>329</ele>
        <time>2022-06-18T14:31:11Z</time>
      </trkpt>
      <trkpt lat="47.16184" lon="5.9299">
        <ele>331</ele>
        <time>2022-06-18T14:31:16Z</time>
      </trkpt>
      <trkpt lat="47.16211" lon="5.92956">
        <ele>332</ele>
        <time>2022-06-18T14:31:24Z</time>
      </trkpt>
      <trkpt lat="47.16242" lon="5.9293">
        <ele>331</ele>
        <time>2022-06-18T14:31:32Z</time>
      </trkpt>
      <trkpt lat="47.16272" lon="5.92911">
        <ele>327</ele>
        <time>2022-06-18T14:31:40Z</time>
      </trkpt>
      <trkpt lat="47.16305" lon="5.92881">
        <ele>321</ele>
        <time>2022-06-18T14:31:49Z</time>
      </trkpt>
      <trkpt lat="47.1631" lon="5.92871">
        <ele>319</ele>
        <time>2022-06-18T14:31:51Z</time>
      </trkpt>
      <trkpt lat="47.16309" lon="5.92856">
        <ele>318</ele>
        <time>2022-06-18T14:31:53Z</time>
      </trkpt>
      <trkpt lat="47.16295" lon="5.92821">
        <ele>315</ele>
        <time>2022-06-18T14:32:00Z</time>
      </trkpt>
      <trkpt lat="47.16281" lon="5.92804">
        <ele>315</ele>
        <time>2022-06-18T14:32:04Z</time>
      </trkpt>
      <trkpt lat="47.16276" lon="5.92791">
        <ele>315</ele>
        <time>2022-06-18T14:32:06Z</time>
      </trkpt>
      <trkpt lat="47.16284" lon="5.92774">
        <ele>312</ele>
        <time>2022-06-18T14:32:10Z</time>
      </trkpt>
      <trkpt lat="47.16297" lon="5.92761">
        <ele>308</ele>
        <time>2022-06-18T14:32:13Z</time>
      </trkpt>
      <trkpt lat="47.1631" lon="5.92758">
        <ele>306</ele>
        <time>2022-06-18T14:32:16Z</time>
      </trkpt>
      <trkpt lat="47.16328" lon="5.92764">
        <ele>303</ele>
        <time>2022-06-18T14:32:21Z</time>
      </trkpt>
      <trkpt lat="47.16482" lon="5.92859">
        <ele>286</ele>
        <time>2022-06-18T14:33:00Z</time>
      </trkpt>
      <trkpt lat="47.16496" lon="5.92863">
        <ele>283</ele>
        <time>2022-06-18T14:33:03Z</time>
      </trkpt>
      <trkpt lat="47.16532" lon="5.92864">
        <ele>276</ele>
        <time>2022-06-18T14:33:12Z</time>
      </trkpt>
      <trkpt lat="47.16555" lon="5.92856">
        <ele>270</ele>
        <time>2022-06-18T14:33:17Z</time>
      </trkpt>
      <trkpt lat="47.16572" lon="5.9283">
        <ele>263</ele>
        <time>2022-06-18T14:33:23Z</time>
      </trkpt>
      <trkpt lat="47.16584" lon="5.92768">
        <ele>254</ele>
        <time>2022-06-18T14:33:33Z</time>
      </trkpt>
      <trkpt lat="47.16583" lon="5.92732">
        <ele>252</ele>
        <time>2022-06-18T14:33:39Z</time>
      </trkpt>
      <trkpt lat="47.16587" lon="5.92706">
        <ele>251</ele>
        <time>2022-06-18T14:33:43Z</time>
      </trkpt>
      <trkpt lat="47.16617" lon="5.92654">
        <ele>250</ele>
        <time>2022-06-18T14:33:54Z</time>
      </trkpt>
      <trkpt lat="47.16617" lon="5.92645">
        <ele>250</ele>
        <time>2022-06-18T14:33:55Z</time>
      </trkpt>
      <trkpt lat="47.16602" lon="5.92627">
        <ele>252</ele>
        <time>2022-06-18T14:34:00Z</time>
      </trkpt>
      <trkpt lat="47.1659" lon="5.92594">
        <ele>256</ele>
        <time>2022-06-18T14:34:06Z</time>
      </trkpt>
      <trkpt lat="47.16579" lon="5.92584">
        <ele>257</ele>
        <time>2022-06-18T14:34:09Z</time>
      </trkpt>
      <trkpt lat="47.16556" lon="5.92522">
        <ele>258</ele>
        <time>2022-06-18T14:34:20Z</time>
      </trkpt>
      <trkpt lat="47.16532" lon="5.92485">
        <ele>256</ele>
        <time>2022-06-18T14:34:28Z</time>
      </trkpt>
      <trkpt lat="47.16511" lon="5.92474">
        <ele>254</ele>
        <time>2022-06-18T14:34:33Z</time>
      </trkpt>
      <trkpt lat="47.16462" lon="5.92432">
        <ele>254</ele>
        <time>2022-06-18T14:34:46Z</time>
      </trkpt>
      <trkpt lat="47.16418" lon="5.92406">
        <ele>254</ele>
        <time>2022-06-18T14:34:58Z</time>
      </trkpt>
      <trkpt lat="47.16403" lon="5.92391">
        <ele>256</ele>
        <time>2022-06-18T14:35:02Z</time>
      </trkpt>
      <trkpt lat="47.16292" lon="5.92319">
        <ele>260</ele>
        <time>2022-06-18T14:35:30Z</time>
      </trkpt>
      <trkpt lat="47.1623" lon="5.92256">
        <ele>264</ele>
        <time>2022-06-18T14:35:48Z</time>
      </trkpt>
      <trkpt lat="47.16172" lon="5.9218">
        <ele>267</ele>
        <time>2022-06-18T14:36:06Z</time>
      </trkpt>
      <trkpt lat="47.16154" lon="5.92161">
        <ele>269</ele>
        <time>2022-06-18T14:36:11Z</time>
      </trkpt>
      <trkpt lat="47.16114" lon="5.9213">
        <ele>271</ele>
        <time>2022-06-18T14:36:22Z</time>
      </trkpt>
      <trkpt lat="47.16108" lon="5.92115">
        <ele>272</ele>
        <time>2022-06-18T14:36:24Z</time>
      </trkpt>
      <trkpt lat="47.16109" lon="5.92093">
        <ele>272</ele>
        <time>2022-06-18T14:36:28Z</time>
      </trkpt>
      <trkpt lat="47.161" lon="5.92074">
        <ele>274</ele>
        <time>2022-06-18T14:36:32Z</time>
      </trkpt>
      <trkpt lat="47.16087" lon="5.92077">
        <ele>274</ele>
        <time>2022-06-18T14:36:35Z</time>
      </trkpt>
      <trkpt lat="47.16076" lon="5.92091">
        <ele>273</ele>
        <time>2022-06-18T14:36:38Z</time>
      </trkpt>
      <trkpt lat="47.16069" lon="5.92088">
        <ele>274</ele>
        <time>2022-06-18T14:36:40Z</time>
      </trkpt>
      <trkpt lat="47.16015" lon="5.92025">
        <ele>279</ele>
        <time>2022-06-18T14:36:56Z</time>
      </trkpt>
      <trkpt lat="47.15945" lon="5.91975">
        <ele>284</ele>
        <time>2022-06-18T14:37:14Z</time>
      </trkpt>
      <trkpt lat="47.15918" lon="5.91941">
        <ele>284</ele>
        <time>2022-06-18T14:37:22Z</time>
      </trkpt>
      <trkpt lat="47.159" lon="5.91903">
        <ele>285</ele>
        <time>2022-06-18T14:37:30Z</time>
      </trkpt>
      <trkpt lat="47.15886" lon="5.91886">
        <ele>286</ele>
        <time>2022-06-18T14:37:34Z</time>
      </trkpt>
      <trkpt lat="47.15824" lon="5.91858">
        <ele>283</ele>
        <time>2022-06-18T14:37:49Z</time>
      </trkpt>
      <trkpt lat="47.15807" lon="5.91857">
        <ele>283</ele>
        <time>2022-06-18T14:37:53Z</time>
      </trkpt>
      <trkpt lat="47.15717" lon="5.91769">
        <ele>288</ele>
        <time>2022-06-18T14:38:18Z</time>
      </trkpt>
      <trkpt lat="47.15705" lon="5.91762">
        <ele>288</ele>
        <time>2022-06-18T14:38:21Z</time>
      </trkpt>
      <trkpt lat="47.15684" lon="5.91759">
        <ele>289</ele>
        <time>2022-06-18T14:38:26Z</time>
      </trkpt>
      <trkpt lat="47.1565" lon="5.91762">
        <ele>293</ele>
        <time>2022-06-18T14:38:34Z</time>
      </trkpt>
      <trkpt lat="47.15611" lon="5.91776">
        <ele>300</ele>
        <time>2022-06-18T14:38:43Z</time>
      </trkpt>
      <trkpt lat="47.1559" lon="5.91787">
        <ele>303</ele>
        <time>2022-06-18T14:38:49Z</time>
      </trkpt>
      <trkpt lat="47.15541" lon="5.91832">
        <ele>307</ele>
        <time>2022-06-18T14:39:02Z</time>
      </trkpt>
      <trkpt lat="47.15515" lon="5.91848">
        <ele>309</ele>
        <time>2022-06-18T14:39:09Z</time>
      </trkpt>
      <trkpt lat="47.15507" lon="5.91845">
        <ele>308</ele>
        <time>2022-06-18T14:39:11Z</time>
      </trkpt>
      <trkpt lat="47.15493" lon="5.9185">
        <ele>310</ele>
        <time>2022-06-18T14:39:14Z</time>
      </trkpt>
      <trkpt lat="47.15467" lon="5.9187">
        <ele>314</ele>
        <time>2022-06-18T14:39:21Z</time>
      </trkpt>
      <trkpt lat="47.15449" lon="5.919">
        <ele>313</ele>
        <time>2022-06-18T14:39:27Z</time>
      </trkpt>
      <trkpt lat="47.15381" lon="5.91987">
        <ele>320</ele>
        <time>2022-06-18T14:39:48Z</time>
      </trkpt>
      <trkpt lat="47.15356" lon="5.92068">
        <ele>321</ele>
        <time>2022-06-18T14:40:02Z</time>
      </trkpt>
      <trkpt lat="47.15338" lon="5.92168">
        <ele>316</ele>
        <time>2022-06-18T14:40:19Z</time>
      </trkpt>
      <trkpt lat="47.15319" lon="5.92218">
        <ele>317</ele>
        <time>2022-06-18T14:40:28Z</time>
      </trkpt>
      <trkpt lat="47.15307" lon="5.92232">
        <ele>317</ele>
        <time>2022-06-18T14:40:32Z</time>
      </trkpt>
      <trkpt lat="47.15303" lon="5.92206">
        <ele>318</ele>
        <time>2022-06-18T14:40:36Z</time>
      </trkpt>
      <trkpt lat="47.15308" lon="5.92124">
        <ele>323</ele>
        <time>2022-06-18T14:40:49Z</time>
      </trkpt>
      <trkpt lat="47.1532" lon="5.92066">
        <ele>324</ele>
        <time>2022-06-18T14:40:58Z</time>
      </trkpt>
      <trkpt lat="47.15344" lon="5.91985">
        <ele>327</ele>
        <time>2022-06-18T14:41:13Z</time>
      </trkpt>
      <trkpt lat="47.15367" lon="5.91927">
        <ele>328</ele>
        <time>2022-06-18T14:41:23Z</time>
      </trkpt>
      <trkpt lat="47.15405" lon="5.91861">
        <ele>325</ele>
        <time>2022-06-18T14:41:37Z</time>
      </trkpt>
      <trkpt lat="47.15479" lon="5.91782">
        <ele>318</ele>
        <time>2022-06-18T14:41:58Z</time>
      </trkpt>
      <trkpt lat="47.155" lon="5.91747">
        <ele>316</ele>
        <time>2022-06-18T14:42:06Z</time>
      </trkpt>
      <trkpt lat="47.15524" lon="5.9169">
        <ele>315</ele>
        <time>2022-06-18T14:42:16Z</time>
      </trkpt>
      <trkpt lat="47.15535" lon="5.91605">
        <ele>315</ele>
        <time>2022-06-18T14:42:30Z</time>
      </trkpt>
      <trkpt lat="47.15537" lon="5.91414">
        <ele>311</ele>
        <time>2022-06-18T14:43:00Z</time>
      </trkpt>
      <trkpt lat="47.15548" lon="5.91331">
        <ele>311</ele>
        <time>2022-06-18T14:43:14Z</time>
      </trkpt>
      <trkpt lat="47.15593" lon="5.91163">
        <ele>304</ele>
        <time>2022-06-18T14:43:43Z</time>
      </trkpt>
      <trkpt lat="47.15617" lon="5.9096">
        <ele>291</ele>
        <time>2022-06-18T14:44:15Z</time>
      </trkpt>
      <trkpt lat="47.15636" lon="5.90872">
        <ele>286</ele>
        <time>2022-06-18T14:44:30Z</time>
      </trkpt>
      <trkpt lat="47.15657" lon="5.90805">
        <ele>284</ele>
        <time>2022-06-18T14:44:42Z</time>
      </trkpt>
      <trkpt lat="47.15681" lon="5.90778">
        <ele>283</ele>
        <time>2022-06-18T14:44:49Z</time>
      </trkpt>
      <trkpt lat="47.15751" lon="5.90715">
        <ele>284</ele>
        <time>2022-06-18T14:45:08Z</time>
      </trkpt>
      <trkpt lat="47.15792" lon="5.90695">
        <ele>285</ele>
        <time>2022-06-18T14:45:18Z</time>
      </trkpt>
      <trkpt lat="47.15918" lon="5.90684">
        <ele>296</ele>
        <time>2022-06-18T14:45:47Z</time>
      </trkpt>
      <trkpt lat="47.15966" lon="5.90699">
        <ele>300</ele>
        <time>2022-06-18T14:45:59Z</time>
      </trkpt>
      <trkpt lat="47.15982" lon="5.9069">
        <ele>300</ele>
        <time>2022-06-18T14:46:03Z</time>
      </trkpt>
      <trkpt lat="47.15993" lon="5.90674">
        <ele>300</ele>
        <time>2022-06-18T14:46:06Z</time>
      </trkpt>
      <trkpt lat="47.16006" lon="5.9067">
        <ele>301</ele>
        <time>2022-06-18T14:46:10Z</time>
      </trkpt>
      <trkpt lat="47.16019" lon="5.90678">
        <ele>303</ele>
        <time>2022-06-18T14:46:13Z</time>
      </trkpt>
      <trkpt lat="47.1608" lon="5.90757">
        <ele>317</ele>
        <time>2022-06-18T14:46:32Z</time>
      </trkpt>
      <trkpt lat="47.16099" lon="5.90749">
        <ele>318</ele>
        <time>2022-06-18T14:46:36Z</time>
      </trkpt>
      <trkpt lat="47.16113" lon="5.90739">
        <ele>318</ele>
        <time>2022-06-18T14:46:40Z</time>
      </trkpt>
      <trkpt lat="47.16124" lon="5.90724">
        <ele>317</ele>
        <time>2022-06-18T14:46:44Z</time>
      </trkpt>
      <trkpt lat="47.16131" lon="5.90723">
        <ele>318</ele>
        <time>2022-06-18T14:46:45Z</time>
      </trkpt>
      <trkpt lat="47.16154" lon="5.90723">
        <ele>319</ele>
        <time>2022-06-18T14:46:51Z</time>
      </trkpt>
      <trkpt lat="47.16221" lon="5.90739">
        <ele>323</ele>
        <time>2022-06-18T14:47:06Z</time>
      </trkpt>
      <trkpt lat="47.16255" lon="5.90734">
        <ele>323</ele>
        <time>2022-06-18T14:47:14Z</time>
      </trkpt>
      <trkpt lat="47.16379" lon="5.90729">
        <ele>320</ele>
        <time>2022-06-18T14:47:43Z</time>
      </trkpt>
      <trkpt lat="47.16393" lon="5.90721">
        <ele>319</ele>
        <time>2022-06-18T14:47:47Z</time>
      </trkpt>
      <trkpt lat="47.1644" lon="5.9067">
        <ele>317</ele>
        <time>2022-06-18T14:48:01Z</time>
      </trkpt>
      <trkpt lat="47.16459" lon="5.90661">
        <ele>316</ele>
        <time>2022-06-18T14:48:05Z</time>
      </trkpt>
      <trkpt lat="47.16507" lon="5.90652">
        <ele>315</ele>
        <time>2022-06-18T14:48:17Z</time>
      </trkpt>
      <trkpt lat="47.16511" lon="5.90649">
        <ele>315</ele>
        <time>2022-06-18T14:48:18Z</time>
      </trkpt>
      <trkpt lat="47.16515" lon="5.90633">
        <ele>313</ele>
        <time>2022-06-18T14:48:20Z</time>
      </trkpt>
      <trkpt lat="47.16519" lon="5.9056">
        <ele>306</ele>
        <time>2022-06-18T14:48:32Z</time>
      </trkpt>
      <trkpt lat="47.16497" lon="5.90439">
        <ele>297</ele>
        <time>2022-06-18T14:48:52Z</time>
      </trkpt>
      <trkpt lat="47.16379" lon="5.9032">
        <ele>300</ele>
        <time>2022-06-18T14:49:25Z</time>
      </trkpt>
      <trkpt lat="47.16369" lon="5.90314">
        <ele>299</ele>
        <time>2022-06-18T14:49:28Z</time>
      </trkpt>
      <trkpt lat="47.16366" lon="5.90321">
        <ele>300</ele>
        <time>2022-06-18T14:49:29Z</time>
      </trkpt>
      <trkpt lat="47.16372" lon="5.9032">
        <ele>300</ele>
        <time>2022-06-18T14:49:30Z</time>
      </trkpt>
    </trkseg>
  </trk>
</gpx>